<?xml version="1.0" encoding="UTF-8" standalone="no" ?>
<gpx xmlns="http://www.topografix.com/GPX/1/1" xmlns:xsi="http://www.w3.org/2001/XMLSchema-instance" xsi:schemaLocation="http://www.topografix.com/GPX/1/1 http://www.topografix.com/GPX/1/1/gpx.xsd" version="1.1" creator="VisuGPX - https://www.visugpx.com">
  <metadata>
    <name>test jettingen</name>
    <desc><![CDATA[test avec le parcours de jettingen]]></desc>
  </metadata>
  <trk>
    <name><![CDATA[20 août 2016 08:01:55]]></name>
    <trkseg>
      <trkpt lat="47.5927" lon="7.37215">
        <ele>417.8</ele>
        <time>2016-08-20T06:05:25.000Z</time>
      </trkpt>
      <trkpt lat="47.59274" lon="7.37227">
        <ele>419.44</ele>
        <time>2016-08-20T06:05:35.000Z</time>
      </trkpt>
      <trkpt lat="47.59262" lon="7.37232">
        <ele>416.1</ele>
        <time>2016-08-20T06:05:50.000Z</time>
      </trkpt>
      <trkpt lat="47.59255" lon="7.37223">
        <ele>421.1</ele>
        <time>2016-08-20T06:06:02.000Z</time>
      </trkpt>
      <trkpt lat="47.59246" lon="7.37216">
        <ele>422.29</ele>
        <time>2016-08-20T06:06:09.000Z</time>
      </trkpt>
      <trkpt lat="47.5924" lon="7.37206">
        <ele>419.56</ele>
        <time>2016-08-20T06:06:16.000Z</time>
      </trkpt>
      <trkpt lat="47.59232" lon="7.37197">
        <ele>423.66</ele>
        <time>2016-08-20T06:06:23.000Z</time>
      </trkpt>
      <trkpt lat="47.59224" lon="7.37187">
        <ele>423.77</ele>
        <time>2016-08-20T06:06:31.000Z</time>
      </trkpt>
      <trkpt lat="47.59217" lon="7.37176">
        <ele>422.4</ele>
        <time>2016-08-20T06:06:38.000Z</time>
      </trkpt>
      <trkpt lat="47.59208" lon="7.37165">
        <ele>423.77</ele>
        <time>2016-08-20T06:06:47.000Z</time>
      </trkpt>
      <trkpt lat="47.59201" lon="7.37156">
        <ele>425.37</ele>
        <time>2016-08-20T06:06:54.000Z</time>
      </trkpt>
      <trkpt lat="47.59195" lon="7.37146">
        <ele>425.85</ele>
        <time>2016-08-20T06:07:01.000Z</time>
      </trkpt>
      <trkpt lat="47.59188" lon="7.37136">
        <ele>425.37</ele>
        <time>2016-08-20T06:07:08.000Z</time>
      </trkpt>
      <trkpt lat="47.59181" lon="7.37127">
        <ele>427</ele>
        <time>2016-08-20T06:07:15.000Z</time>
      </trkpt>
      <trkpt lat="47.59174" lon="7.37116">
        <ele>426.72</ele>
        <time>2016-08-20T06:07:22.000Z</time>
      </trkpt>
      <trkpt lat="47.59166" lon="7.37106">
        <ele>426.43</ele>
        <time>2016-08-20T06:07:30.000Z</time>
      </trkpt>
      <trkpt lat="47.59157" lon="7.37097">
        <ele>427.7</ele>
        <time>2016-08-20T06:07:37.000Z</time>
      </trkpt>
      <trkpt lat="47.59149" lon="7.37087">
        <ele>427.78</ele>
        <time>2016-08-20T06:07:44.000Z</time>
      </trkpt>
      <trkpt lat="47.59143" lon="7.37075">
        <ele>425.96</ele>
        <time>2016-08-20T06:07:51.000Z</time>
      </trkpt>
      <trkpt lat="47.59137" lon="7.37064">
        <ele>425.08</ele>
        <time>2016-08-20T06:07:58.000Z</time>
      </trkpt>
      <trkpt lat="47.59129" lon="7.37056">
        <ele>426.95</ele>
        <time>2016-08-20T06:08:04.000Z</time>
      </trkpt>
      <trkpt lat="47.59121" lon="7.37047">
        <ele>427.47</ele>
        <time>2016-08-20T06:08:11.000Z</time>
      </trkpt>
      <trkpt lat="47.59115" lon="7.37036">
        <ele>429.77</ele>
        <time>2016-08-20T06:08:17.000Z</time>
      </trkpt>
      <trkpt lat="47.59107" lon="7.37028">
        <ele>432.81</ele>
        <time>2016-08-20T06:08:25.000Z</time>
      </trkpt>
      <trkpt lat="47.591" lon="7.37019">
        <ele>430.37</ele>
        <time>2016-08-20T06:08:32.000Z</time>
      </trkpt>
      <trkpt lat="47.59092" lon="7.37009">
        <ele>429.25</ele>
        <time>2016-08-20T06:08:39.000Z</time>
      </trkpt>
      <trkpt lat="47.59085" lon="7.37001">
        <ele>431.26</ele>
        <time>2016-08-20T06:08:46.000Z</time>
      </trkpt>
      <trkpt lat="47.59077" lon="7.36991">
        <ele>434.32</ele>
        <time>2016-08-20T06:08:53.000Z</time>
      </trkpt>
      <trkpt lat="47.59069" lon="7.36982">
        <ele>436.11</ele>
        <time>2016-08-20T06:08:59.000Z</time>
      </trkpt>
      <trkpt lat="47.59062" lon="7.3697">
        <ele>435.09</ele>
        <time>2016-08-20T06:09:07.000Z</time>
      </trkpt>
      <trkpt lat="47.59055" lon="7.3696">
        <ele>436.87</ele>
        <time>2016-08-20T06:09:15.000Z</time>
      </trkpt>
      <trkpt lat="47.59046" lon="7.36953">
        <ele>437.22</ele>
        <time>2016-08-20T06:09:22.000Z</time>
      </trkpt>
      <trkpt lat="47.59037" lon="7.36959">
        <ele>436</ele>
        <time>2016-08-20T06:09:29.000Z</time>
      </trkpt>
      <trkpt lat="47.59028" lon="7.36967">
        <ele>433.34</ele>
        <time>2016-08-20T06:09:37.000Z</time>
      </trkpt>
      <trkpt lat="47.59021" lon="7.36976">
        <ele>430.82</ele>
        <time>2016-08-20T06:09:43.000Z</time>
      </trkpt>
      <trkpt lat="47.59012" lon="7.36983">
        <ele>435.54</ele>
        <time>2016-08-20T06:09:49.000Z</time>
      </trkpt>
      <trkpt lat="47.59006" lon="7.36995">
        <ele>434.29</ele>
        <time>2016-08-20T06:09:56.000Z</time>
      </trkpt>
      <trkpt lat="47.58997" lon="7.37004">
        <ele>434.65</ele>
        <time>2016-08-20T06:10:03.000Z</time>
      </trkpt>
      <trkpt lat="47.58991" lon="7.37013">
        <ele>431.48</ele>
        <time>2016-08-20T06:10:11.000Z</time>
      </trkpt>
      <trkpt lat="47.58983" lon="7.37021">
        <ele>429.63</ele>
        <time>2016-08-20T06:10:26.000Z</time>
      </trkpt>
      <trkpt lat="47.58976" lon="7.3703">
        <ele>431.57</ele>
        <time>2016-08-20T06:10:35.000Z</time>
      </trkpt>
      <trkpt lat="47.58967" lon="7.37038">
        <ele>431.31</ele>
        <time>2016-08-20T06:10:42.000Z</time>
      </trkpt>
      <trkpt lat="47.5896" lon="7.37047">
        <ele>424.02</ele>
        <time>2016-08-20T06:10:50.000Z</time>
      </trkpt>
      <trkpt lat="47.58952" lon="7.37055">
        <ele>424.24</ele>
        <time>2016-08-20T06:10:55.000Z</time>
      </trkpt>
      <trkpt lat="47.58946" lon="7.37066">
        <ele>427.29</ele>
        <time>2016-08-20T06:11:02.000Z</time>
      </trkpt>
      <trkpt lat="47.58938" lon="7.37073">
        <ele>422.87</ele>
        <time>2016-08-20T06:11:08.000Z</time>
      </trkpt>
      <trkpt lat="47.58929" lon="7.37082">
        <ele>424.57</ele>
        <time>2016-08-20T06:11:15.000Z</time>
      </trkpt>
      <trkpt lat="47.58922" lon="7.37092">
        <ele>425.06</ele>
        <time>2016-08-20T06:11:22.000Z</time>
      </trkpt>
      <trkpt lat="47.58915" lon="7.37101">
        <ele>422.98</ele>
        <time>2016-08-20T06:11:28.000Z</time>
      </trkpt>
      <trkpt lat="47.58905" lon="7.37108">
        <ele>422.98</ele>
        <time>2016-08-20T06:11:34.000Z</time>
      </trkpt>
      <trkpt lat="47.58899" lon="7.37117">
        <ele>427.57</ele>
        <time>2016-08-20T06:11:40.000Z</time>
      </trkpt>
      <trkpt lat="47.58891" lon="7.37126">
        <ele>423.75</ele>
        <time>2016-08-20T06:11:46.000Z</time>
      </trkpt>
      <trkpt lat="47.58885" lon="7.37138">
        <ele>424.1</ele>
        <time>2016-08-20T06:11:53.000Z</time>
      </trkpt>
      <trkpt lat="47.58876" lon="7.37148">
        <ele>425</ele>
        <time>2016-08-20T06:12:00.000Z</time>
      </trkpt>
      <trkpt lat="47.58868" lon="7.37158">
        <ele>429.08</ele>
        <time>2016-08-20T06:12:06.000Z</time>
      </trkpt>
      <trkpt lat="47.58861" lon="7.37168">
        <ele>425.9</ele>
        <time>2016-08-20T06:12:12.000Z</time>
      </trkpt>
      <trkpt lat="47.58854" lon="7.37177">
        <ele>424.91</ele>
        <time>2016-08-20T06:12:18.000Z</time>
      </trkpt>
      <trkpt lat="47.58847" lon="7.37187">
        <ele>428.15</ele>
        <time>2016-08-20T06:12:24.000Z</time>
      </trkpt>
      <trkpt lat="47.58839" lon="7.37195">
        <ele>427.81</ele>
        <time>2016-08-20T06:12:31.000Z</time>
      </trkpt>
      <trkpt lat="47.58832" lon="7.37204">
        <ele>427.22</ele>
        <time>2016-08-20T06:12:37.000Z</time>
      </trkpt>
      <trkpt lat="47.58824" lon="7.37211">
        <ele>431.7</ele>
        <time>2016-08-20T06:12:43.000Z</time>
      </trkpt>
      <trkpt lat="47.58817" lon="7.37221">
        <ele>429.08</ele>
        <time>2016-08-20T06:12:49.000Z</time>
      </trkpt>
      <trkpt lat="47.5881" lon="7.3723">
        <ele>428.15</ele>
        <time>2016-08-20T06:12:56.000Z</time>
      </trkpt>
      <trkpt lat="47.58802" lon="7.37239">
        <ele>428.2</ele>
        <time>2016-08-20T06:13:02.000Z</time>
      </trkpt>
      <trkpt lat="47.58794" lon="7.37249">
        <ele>425.3</ele>
        <time>2016-08-20T06:13:09.000Z</time>
      </trkpt>
      <trkpt lat="47.58788" lon="7.37259">
        <ele>422.5</ele>
        <time>2016-08-20T06:13:15.000Z</time>
      </trkpt>
      <trkpt lat="47.58781" lon="7.37268">
        <ele>422.84</ele>
        <time>2016-08-20T06:13:21.000Z</time>
      </trkpt>
      <trkpt lat="47.58774" lon="7.37278">
        <ele>419.95</ele>
        <time>2016-08-20T06:13:27.000Z</time>
      </trkpt>
      <trkpt lat="47.58766" lon="7.37288">
        <ele>423.79</ele>
        <time>2016-08-20T06:13:33.000Z</time>
      </trkpt>
      <trkpt lat="47.58757" lon="7.37298">
        <ele>426.69</ele>
        <time>2016-08-20T06:13:40.000Z</time>
      </trkpt>
      <trkpt lat="47.5875" lon="7.37307">
        <ele>430.31</ele>
        <time>2016-08-20T06:13:46.000Z</time>
      </trkpt>
      <trkpt lat="47.58743" lon="7.37317">
        <ele>428.63</ele>
        <time>2016-08-20T06:13:54.000Z</time>
      </trkpt>
      <trkpt lat="47.58736" lon="7.37328">
        <ele>427.38</ele>
        <time>2016-08-20T06:14:00.000Z</time>
      </trkpt>
      <trkpt lat="47.58729" lon="7.37338">
        <ele>426.67</ele>
        <time>2016-08-20T06:14:08.000Z</time>
      </trkpt>
      <trkpt lat="47.58722" lon="7.37348">
        <ele>426.11</ele>
        <time>2016-08-20T06:14:14.000Z</time>
      </trkpt>
      <trkpt lat="47.58715" lon="7.37356">
        <ele>423.73</ele>
        <time>2016-08-20T06:14:20.000Z</time>
      </trkpt>
      <trkpt lat="47.58707" lon="7.37364">
        <ele>428.14</ele>
        <time>2016-08-20T06:14:26.000Z</time>
      </trkpt>
      <trkpt lat="47.58698" lon="7.37372">
        <ele>428.39</ele>
        <time>2016-08-20T06:14:34.000Z</time>
      </trkpt>
      <trkpt lat="47.58691" lon="7.37382">
        <ele>427.9</ele>
        <time>2016-08-20T06:14:40.000Z</time>
      </trkpt>
      <trkpt lat="47.58683" lon="7.37391">
        <ele>429.21</ele>
        <time>2016-08-20T06:14:47.000Z</time>
      </trkpt>
      <trkpt lat="47.58675" lon="7.374">
        <ele>429.61</ele>
        <time>2016-08-20T06:14:54.000Z</time>
      </trkpt>
      <trkpt lat="47.58667" lon="7.37409">
        <ele>435</ele>
        <time>2016-08-20T06:14:59.000Z</time>
      </trkpt>
      <trkpt lat="47.5866" lon="7.37418">
        <ele>435.47</ele>
        <time>2016-08-20T06:15:06.000Z</time>
      </trkpt>
      <trkpt lat="47.58653" lon="7.37428">
        <ele>430.65</ele>
        <time>2016-08-20T06:15:12.000Z</time>
      </trkpt>
      <trkpt lat="47.58645" lon="7.37437">
        <ele>431.68</ele>
        <time>2016-08-20T06:15:19.000Z</time>
      </trkpt>
      <trkpt lat="47.58638" lon="7.37445">
        <ele>433.29</ele>
        <time>2016-08-20T06:15:25.000Z</time>
      </trkpt>
      <trkpt lat="47.5863" lon="7.37454">
        <ele>434.94</ele>
        <time>2016-08-20T06:15:32.000Z</time>
      </trkpt>
      <trkpt lat="47.58622" lon="7.37462">
        <ele>430.48</ele>
        <time>2016-08-20T06:15:39.000Z</time>
      </trkpt>
      <trkpt lat="47.58614" lon="7.3747">
        <ele>431.54</ele>
        <time>2016-08-20T06:15:45.000Z</time>
      </trkpt>
      <trkpt lat="47.58607" lon="7.3748">
        <ele>432.55</ele>
        <time>2016-08-20T06:15:52.000Z</time>
      </trkpt>
      <trkpt lat="47.58599" lon="7.37488">
        <ele>434.52</ele>
        <time>2016-08-20T06:15:58.000Z</time>
      </trkpt>
      <trkpt lat="47.58591" lon="7.37497">
        <ele>430.85</ele>
        <time>2016-08-20T06:16:04.000Z</time>
      </trkpt>
      <trkpt lat="47.58584" lon="7.37506">
        <ele>431.51</ele>
        <time>2016-08-20T06:16:10.000Z</time>
      </trkpt>
      <trkpt lat="47.58576" lon="7.37515">
        <ele>431.46</ele>
        <time>2016-08-20T06:16:17.000Z</time>
      </trkpt>
      <trkpt lat="47.58567" lon="7.37525">
        <ele>430.98</ele>
        <time>2016-08-20T06:16:24.000Z</time>
      </trkpt>
      <trkpt lat="47.5856" lon="7.37534">
        <ele>433.73</ele>
        <time>2016-08-20T06:16:30.000Z</time>
      </trkpt>
      <trkpt lat="47.58554" lon="7.37546">
        <ele>433.13</ele>
        <time>2016-08-20T06:16:37.000Z</time>
      </trkpt>
      <trkpt lat="47.58546" lon="7.37555">
        <ele>428.69</ele>
        <time>2016-08-20T06:16:44.000Z</time>
      </trkpt>
      <trkpt lat="47.58539" lon="7.37565">
        <ele>427.26</ele>
        <time>2016-08-20T06:16:50.000Z</time>
      </trkpt>
      <trkpt lat="47.58534" lon="7.37578">
        <ele>429.7</ele>
        <time>2016-08-20T06:16:57.000Z</time>
      </trkpt>
      <trkpt lat="47.5853" lon="7.37591">
        <ele>429.48</ele>
        <time>2016-08-20T06:17:02.000Z</time>
      </trkpt>
      <trkpt lat="47.58529" lon="7.37604">
        <ele>424.57</ele>
        <time>2016-08-20T06:17:08.000Z</time>
      </trkpt>
      <trkpt lat="47.5853" lon="7.37618">
        <ele>419.95</ele>
        <time>2016-08-20T06:17:14.000Z</time>
      </trkpt>
      <trkpt lat="47.58529" lon="7.37633">
        <ele>416.71</ele>
        <time>2016-08-20T06:17:21.000Z</time>
      </trkpt>
      <trkpt lat="47.5853" lon="7.37647">
        <ele>421.41</ele>
        <time>2016-08-20T06:17:28.000Z</time>
      </trkpt>
      <trkpt lat="47.58531" lon="7.37661">
        <ele>423.71</ele>
        <time>2016-08-20T06:17:34.000Z</time>
      </trkpt>
      <trkpt lat="47.5853" lon="7.37675">
        <ele>420.36</ele>
        <time>2016-08-20T06:17:40.000Z</time>
      </trkpt>
      <trkpt lat="47.58531" lon="7.37689">
        <ele>420.07</ele>
        <time>2016-08-20T06:17:47.000Z</time>
      </trkpt>
      <trkpt lat="47.58529" lon="7.37703">
        <ele>421.16</ele>
        <time>2016-08-20T06:17:53.000Z</time>
      </trkpt>
      <trkpt lat="47.58526" lon="7.37717">
        <ele>422.77</ele>
        <time>2016-08-20T06:17:59.000Z</time>
      </trkpt>
      <trkpt lat="47.58523" lon="7.37731">
        <ele>421.4</ele>
        <time>2016-08-20T06:18:06.000Z</time>
      </trkpt>
      <trkpt lat="47.58529" lon="7.37742">
        <ele>418.38</ele>
        <time>2016-08-20T06:18:12.000Z</time>
      </trkpt>
      <trkpt lat="47.58535" lon="7.37753">
        <ele>426.1</ele>
        <time>2016-08-20T06:18:18.000Z</time>
      </trkpt>
      <trkpt lat="47.58542" lon="7.37766">
        <ele>420.36</ele>
        <time>2016-08-20T06:18:26.000Z</time>
      </trkpt>
      <trkpt lat="47.58548" lon="7.37776">
        <ele>415.25</ele>
        <time>2016-08-20T06:18:33.000Z</time>
      </trkpt>
      <trkpt lat="47.58555" lon="7.37786">
        <ele>413.46</ele>
        <time>2016-08-20T06:18:39.000Z</time>
      </trkpt>
      <trkpt lat="47.58561" lon="7.37797">
        <ele>413.43</ele>
        <time>2016-08-20T06:18:46.000Z</time>
      </trkpt>
      <trkpt lat="47.58568" lon="7.37807">
        <ele>413.67</ele>
        <time>2016-08-20T06:18:51.000Z</time>
      </trkpt>
      <trkpt lat="47.58574" lon="7.37818">
        <ele>416.51</ele>
        <time>2016-08-20T06:18:57.000Z</time>
      </trkpt>
      <trkpt lat="47.5858" lon="7.37828">
        <ele>416.95</ele>
        <time>2016-08-20T06:19:03.000Z</time>
      </trkpt>
      <trkpt lat="47.58587" lon="7.37838">
        <ele>416.43</ele>
        <time>2016-08-20T06:19:09.000Z</time>
      </trkpt>
      <trkpt lat="47.58592" lon="7.3785">
        <ele>415.86</ele>
        <time>2016-08-20T06:19:14.000Z</time>
      </trkpt>
      <trkpt lat="47.58598" lon="7.3786">
        <ele>417.33</ele>
        <time>2016-08-20T06:19:20.000Z</time>
      </trkpt>
      <trkpt lat="47.58605" lon="7.3787">
        <ele>416.15</ele>
        <time>2016-08-20T06:19:26.000Z</time>
      </trkpt>
      <trkpt lat="47.58608" lon="7.37884">
        <ele>415.32</ele>
        <time>2016-08-20T06:19:33.000Z</time>
      </trkpt>
      <trkpt lat="47.58602" lon="7.37895">
        <ele>417.25</ele>
        <time>2016-08-20T06:19:40.000Z</time>
      </trkpt>
      <trkpt lat="47.58595" lon="7.37904">
        <ele>416.32</ele>
        <time>2016-08-20T06:19:46.000Z</time>
      </trkpt>
      <trkpt lat="47.58587" lon="7.37911">
        <ele>414.3</ele>
        <time>2016-08-20T06:19:53.000Z</time>
      </trkpt>
      <trkpt lat="47.5858" lon="7.37922">
        <ele>419.76</ele>
        <time>2016-08-20T06:20:03.000Z</time>
      </trkpt>
      <trkpt lat="47.58573" lon="7.37933">
        <ele>421.71</ele>
        <time>2016-08-20T06:20:10.000Z</time>
      </trkpt>
      <trkpt lat="47.58566" lon="7.37942">
        <ele>422.06</ele>
        <time>2016-08-20T06:20:16.000Z</time>
      </trkpt>
      <trkpt lat="47.58559" lon="7.37952">
        <ele>421.5</ele>
        <time>2016-08-20T06:20:24.000Z</time>
      </trkpt>
      <trkpt lat="47.58551" lon="7.37963">
        <ele>419.15</ele>
        <time>2016-08-20T06:20:31.000Z</time>
      </trkpt>
      <trkpt lat="47.58544" lon="7.37973">
        <ele>417.14</ele>
        <time>2016-08-20T06:20:38.000Z</time>
      </trkpt>
      <trkpt lat="47.58537" lon="7.37982">
        <ele>417.66</ele>
        <time>2016-08-20T06:20:44.000Z</time>
      </trkpt>
      <trkpt lat="47.5853" lon="7.37993">
        <ele>418.51</ele>
        <time>2016-08-20T06:20:50.000Z</time>
      </trkpt>
      <trkpt lat="47.58524" lon="7.38004">
        <ele>421.21</ele>
        <time>2016-08-20T06:20:57.000Z</time>
      </trkpt>
      <trkpt lat="47.58517" lon="7.38013">
        <ele>421.29</ele>
        <time>2016-08-20T06:21:03.000Z</time>
      </trkpt>
      <trkpt lat="47.58511" lon="7.38026">
        <ele>420.08</ele>
        <time>2016-08-20T06:21:10.000Z</time>
      </trkpt>
      <trkpt lat="47.58504" lon="7.38035">
        <ele>420.39</ele>
        <time>2016-08-20T06:21:17.000Z</time>
      </trkpt>
      <trkpt lat="47.58496" lon="7.38044">
        <ele>421.08</ele>
        <time>2016-08-20T06:21:23.000Z</time>
      </trkpt>
      <trkpt lat="47.58488" lon="7.38052">
        <ele>425.16</ele>
        <time>2016-08-20T06:21:28.000Z</time>
      </trkpt>
      <trkpt lat="47.58482" lon="7.38063">
        <ele>423.72</ele>
        <time>2016-08-20T06:21:36.000Z</time>
      </trkpt>
      <trkpt lat="47.58474" lon="7.3807">
        <ele>433.75</ele>
        <time>2016-08-20T06:21:41.000Z</time>
      </trkpt>
      <trkpt lat="47.58466" lon="7.38078">
        <ele>434.54</ele>
        <time>2016-08-20T06:21:48.000Z</time>
      </trkpt>
      <trkpt lat="47.58462" lon="7.38094">
        <ele>429.78</ele>
        <time>2016-08-20T06:21:54.000Z</time>
      </trkpt>
      <trkpt lat="47.58456" lon="7.38104">
        <ele>430.69</ele>
        <time>2016-08-20T06:22:00.000Z</time>
      </trkpt>
      <trkpt lat="47.58452" lon="7.38116">
        <ele>430.29</ele>
        <time>2016-08-20T06:22:07.000Z</time>
      </trkpt>
      <trkpt lat="47.58455" lon="7.3813">
        <ele>426.52</ele>
        <time>2016-08-20T06:22:13.000Z</time>
      </trkpt>
      <trkpt lat="47.58462" lon="7.3814">
        <ele>417.95</ele>
        <time>2016-08-20T06:22:20.000Z</time>
      </trkpt>
      <trkpt lat="47.58469" lon="7.38151">
        <ele>414.27</ele>
        <time>2016-08-20T06:22:27.000Z</time>
      </trkpt>
      <trkpt lat="47.58476" lon="7.3816">
        <ele>411.37</ele>
        <time>2016-08-20T06:22:33.000Z</time>
      </trkpt>
      <trkpt lat="47.58482" lon="7.38171">
        <ele>409.91</ele>
        <time>2016-08-20T06:22:40.000Z</time>
      </trkpt>
      <trkpt lat="47.58487" lon="7.38184">
        <ele>412.85</ele>
        <time>2016-08-20T06:22:46.000Z</time>
      </trkpt>
      <trkpt lat="47.58493" lon="7.38196">
        <ele>411.72</ele>
        <time>2016-08-20T06:22:54.000Z</time>
      </trkpt>
      <trkpt lat="47.58498" lon="7.38207">
        <ele>412.99</ele>
        <time>2016-08-20T06:23:00.000Z</time>
      </trkpt>
      <trkpt lat="47.58506" lon="7.38217">
        <ele>412.32</ele>
        <time>2016-08-20T06:23:06.000Z</time>
      </trkpt>
      <trkpt lat="47.5851" lon="7.3823">
        <ele>410.67</ele>
        <time>2016-08-20T06:23:12.000Z</time>
      </trkpt>
      <trkpt lat="47.58517" lon="7.3824">
        <ele>410.84</ele>
        <time>2016-08-20T06:23:19.000Z</time>
      </trkpt>
      <trkpt lat="47.58522" lon="7.38251">
        <ele>409.42</ele>
        <time>2016-08-20T06:23:25.000Z</time>
      </trkpt>
      <trkpt lat="47.58528" lon="7.38264">
        <ele>410.17</ele>
        <time>2016-08-20T06:23:31.000Z</time>
      </trkpt>
      <trkpt lat="47.58535" lon="7.38275">
        <ele>411.28</ele>
        <time>2016-08-20T06:23:38.000Z</time>
      </trkpt>
      <trkpt lat="47.58544" lon="7.38274">
        <ele>410.41</ele>
        <time>2016-08-20T06:23:45.000Z</time>
      </trkpt>
      <trkpt lat="47.58552" lon="7.38266">
        <ele>412.57</ele>
        <time>2016-08-20T06:23:52.000Z</time>
      </trkpt>
      <trkpt lat="47.58561" lon="7.3826">
        <ele>417.92</ele>
        <time>2016-08-20T06:23:58.000Z</time>
      </trkpt>
      <trkpt lat="47.58569" lon="7.38255">
        <ele>418.77</ele>
        <time>2016-08-20T06:24:03.000Z</time>
      </trkpt>
      <trkpt lat="47.58575" lon="7.38244">
        <ele>421.2</ele>
        <time>2016-08-20T06:24:09.000Z</time>
      </trkpt>
      <trkpt lat="47.58582" lon="7.38235">
        <ele>417.88</ele>
        <time>2016-08-20T06:24:16.000Z</time>
      </trkpt>
      <trkpt lat="47.58591" lon="7.38228">
        <ele>418.93</ele>
        <time>2016-08-20T06:24:22.000Z</time>
      </trkpt>
      <trkpt lat="47.58599" lon="7.38219">
        <ele>418.52</ele>
        <time>2016-08-20T06:24:31.000Z</time>
      </trkpt>
      <trkpt lat="47.58607" lon="7.38209">
        <ele>415.19</ele>
        <time>2016-08-20T06:24:38.000Z</time>
      </trkpt>
      <trkpt lat="47.58616" lon="7.38202">
        <ele>413</ele>
        <time>2016-08-20T06:24:45.000Z</time>
      </trkpt>
      <trkpt lat="47.58624" lon="7.38193">
        <ele>411.55</ele>
        <time>2016-08-20T06:24:52.000Z</time>
      </trkpt>
      <trkpt lat="47.58631" lon="7.38184">
        <ele>412.6</ele>
        <time>2016-08-20T06:24:58.000Z</time>
      </trkpt>
      <trkpt lat="47.58641" lon="7.38179">
        <ele>414.96</ele>
        <time>2016-08-20T06:25:05.000Z</time>
      </trkpt>
      <trkpt lat="47.58649" lon="7.38171">
        <ele>414.43</ele>
        <time>2016-08-20T06:25:12.000Z</time>
      </trkpt>
      <trkpt lat="47.58658" lon="7.38161">
        <ele>410.39</ele>
        <time>2016-08-20T06:25:19.000Z</time>
      </trkpt>
      <trkpt lat="47.58668" lon="7.38154">
        <ele>415.62</ele>
        <time>2016-08-20T06:25:26.000Z</time>
      </trkpt>
      <trkpt lat="47.58675" lon="7.38146">
        <ele>412.44</ele>
        <time>2016-08-20T06:25:33.000Z</time>
      </trkpt>
      <trkpt lat="47.58685" lon="7.38148">
        <ele>416.03</ele>
        <time>2016-08-20T06:27:02.000Z</time>
      </trkpt>
      <trkpt lat="47.58693" lon="7.38155">
        <ele>415.9</ele>
        <time>2016-08-20T06:27:09.000Z</time>
      </trkpt>
      <trkpt lat="47.58699" lon="7.38167">
        <ele>419.26</ele>
        <time>2016-08-20T06:27:16.000Z</time>
      </trkpt>
      <trkpt lat="47.58697" lon="7.3818">
        <ele>411.18</ele>
        <time>2016-08-20T06:27:22.000Z</time>
      </trkpt>
      <trkpt lat="47.58696" lon="7.38194">
        <ele>413.91</ele>
        <time>2016-08-20T06:27:30.000Z</time>
      </trkpt>
      <trkpt lat="47.58694" lon="7.38206">
        <ele>411.96</ele>
        <time>2016-08-20T06:27:36.000Z</time>
      </trkpt>
      <trkpt lat="47.58688" lon="7.38219">
        <ele>414.42</ele>
        <time>2016-08-20T06:27:43.000Z</time>
      </trkpt>
      <trkpt lat="47.58682" lon="7.38229">
        <ele>415.17</ele>
        <time>2016-08-20T06:27:49.000Z</time>
      </trkpt>
      <trkpt lat="47.58675" lon="7.3824">
        <ele>407.48</ele>
        <time>2016-08-20T06:27:58.000Z</time>
      </trkpt>
      <trkpt lat="47.58669" lon="7.38251">
        <ele>409.02</ele>
        <time>2016-08-20T06:28:05.000Z</time>
      </trkpt>
      <trkpt lat="47.58666" lon="7.38265">
        <ele>412.17</ele>
        <time>2016-08-20T06:28:12.000Z</time>
      </trkpt>
      <trkpt lat="47.58664" lon="7.38278">
        <ele>412.36</ele>
        <time>2016-08-20T06:28:17.000Z</time>
      </trkpt>
      <trkpt lat="47.58658" lon="7.38291">
        <ele>405.83</ele>
        <time>2016-08-20T06:28:24.000Z</time>
      </trkpt>
      <trkpt lat="47.58652" lon="7.38303">
        <ele>405.25</ele>
        <time>2016-08-20T06:28:32.000Z</time>
      </trkpt>
      <trkpt lat="47.58643" lon="7.38307">
        <ele>409.95</ele>
        <time>2016-08-20T06:28:36.000Z</time>
      </trkpt>
      <trkpt lat="47.58636" lon="7.38316">
        <ele>411.85</ele>
        <time>2016-08-20T06:28:43.000Z</time>
      </trkpt>
      <trkpt lat="47.58627" lon="7.38325">
        <ele>420.25</ele>
        <time>2016-08-20T06:28:50.000Z</time>
      </trkpt>
      <trkpt lat="47.58619" lon="7.38332">
        <ele>416.53</ele>
        <time>2016-08-20T06:28:56.000Z</time>
      </trkpt>
      <trkpt lat="47.58611" lon="7.38338">
        <ele>421.46</ele>
        <time>2016-08-20T06:29:01.000Z</time>
      </trkpt>
      <trkpt lat="47.58602" lon="7.38346">
        <ele>417.03</ele>
        <time>2016-08-20T06:29:07.000Z</time>
      </trkpt>
      <trkpt lat="47.58593" lon="7.38353">
        <ele>416.36</ele>
        <time>2016-08-20T06:29:14.000Z</time>
      </trkpt>
      <trkpt lat="47.58584" lon="7.3836">
        <ele>414.89</ele>
        <time>2016-08-20T06:29:21.000Z</time>
      </trkpt>
      <trkpt lat="47.58577" lon="7.3837">
        <ele>414.86</ele>
        <time>2016-08-20T06:29:28.000Z</time>
      </trkpt>
      <trkpt lat="47.5857" lon="7.3838">
        <ele>407.57</ele>
        <time>2016-08-20T06:29:36.000Z</time>
      </trkpt>
      <trkpt lat="47.58563" lon="7.38391">
        <ele>407.58</ele>
        <time>2016-08-20T06:29:44.000Z</time>
      </trkpt>
      <trkpt lat="47.58557" lon="7.384">
        <ele>410.15</ele>
        <time>2016-08-20T06:29:50.000Z</time>
      </trkpt>
      <trkpt lat="47.58549" lon="7.3841">
        <ele>412.87</ele>
        <time>2016-08-20T06:29:57.000Z</time>
      </trkpt>
      <trkpt lat="47.5854" lon="7.38419">
        <ele>411.32</ele>
        <time>2016-08-20T06:30:03.000Z</time>
      </trkpt>
      <trkpt lat="47.58533" lon="7.38431">
        <ele>410.15</ele>
        <time>2016-08-20T06:30:10.000Z</time>
      </trkpt>
      <trkpt lat="47.58526" lon="7.3844">
        <ele>408.53</ele>
        <time>2016-08-20T06:30:19.000Z</time>
      </trkpt>
      <trkpt lat="47.58518" lon="7.38448">
        <ele>408.37</ele>
        <time>2016-08-20T06:30:24.000Z</time>
      </trkpt>
      <trkpt lat="47.58511" lon="7.38459">
        <ele>408.49</ele>
        <time>2016-08-20T06:30:30.000Z</time>
      </trkpt>
      <trkpt lat="47.58503" lon="7.38468">
        <ele>405.96</ele>
        <time>2016-08-20T06:30:36.000Z</time>
      </trkpt>
      <trkpt lat="47.58496" lon="7.38478">
        <ele>409.56</ele>
        <time>2016-08-20T06:30:42.000Z</time>
      </trkpt>
      <trkpt lat="47.58487" lon="7.38488">
        <ele>404.25</ele>
        <time>2016-08-20T06:30:49.000Z</time>
      </trkpt>
      <trkpt lat="47.58482" lon="7.385">
        <ele>401.36</ele>
        <time>2016-08-20T06:30:57.000Z</time>
      </trkpt>
      <trkpt lat="47.58474" lon="7.38511">
        <ele>402.26</ele>
        <time>2016-08-20T06:31:03.000Z</time>
      </trkpt>
      <trkpt lat="47.58467" lon="7.3852">
        <ele>406.52</ele>
        <time>2016-08-20T06:31:08.000Z</time>
      </trkpt>
      <trkpt lat="47.58458" lon="7.38529">
        <ele>413.82</ele>
        <time>2016-08-20T06:31:16.000Z</time>
      </trkpt>
      <trkpt lat="47.58448" lon="7.38536">
        <ele>409.99</ele>
        <time>2016-08-20T06:31:22.000Z</time>
      </trkpt>
      <trkpt lat="47.5844" lon="7.38542">
        <ele>411</ele>
        <time>2016-08-20T06:31:29.000Z</time>
      </trkpt>
      <trkpt lat="47.58431" lon="7.38547">
        <ele>412.16</ele>
        <time>2016-08-20T06:31:35.000Z</time>
      </trkpt>
      <trkpt lat="47.58421" lon="7.3855">
        <ele>414.79</ele>
        <time>2016-08-20T06:31:41.000Z</time>
      </trkpt>
      <trkpt lat="47.5841" lon="7.38552">
        <ele>414.37</ele>
        <time>2016-08-20T06:31:49.000Z</time>
      </trkpt>
      <trkpt lat="47.58401" lon="7.38553">
        <ele>417.38</ele>
        <time>2016-08-20T06:31:55.000Z</time>
      </trkpt>
      <trkpt lat="47.58392" lon="7.38555">
        <ele>419.64</ele>
        <time>2016-08-20T06:32:01.000Z</time>
      </trkpt>
      <trkpt lat="47.58381" lon="7.38558">
        <ele>419.98</ele>
        <time>2016-08-20T06:32:07.000Z</time>
      </trkpt>
      <trkpt lat="47.58372" lon="7.38562">
        <ele>423.19</ele>
        <time>2016-08-20T06:32:13.000Z</time>
      </trkpt>
      <trkpt lat="47.58363" lon="7.38566">
        <ele>423.04</ele>
        <time>2016-08-20T06:32:19.000Z</time>
      </trkpt>
      <trkpt lat="47.58353" lon="7.3857">
        <ele>424.13</ele>
        <time>2016-08-20T06:32:25.000Z</time>
      </trkpt>
      <trkpt lat="47.58344" lon="7.38575">
        <ele>419.92</ele>
        <time>2016-08-20T06:32:33.000Z</time>
      </trkpt>
      <trkpt lat="47.58335" lon="7.38574">
        <ele>423.4</ele>
        <time>2016-08-20T06:32:39.000Z</time>
      </trkpt>
      <trkpt lat="47.58325" lon="7.38579">
        <ele>422.41</ele>
        <time>2016-08-20T06:32:46.000Z</time>
      </trkpt>
      <trkpt lat="47.58316" lon="7.38581">
        <ele>422.59</ele>
        <time>2016-08-20T06:32:51.000Z</time>
      </trkpt>
      <trkpt lat="47.58305" lon="7.38579">
        <ele>421.91</ele>
        <time>2016-08-20T06:32:58.000Z</time>
      </trkpt>
      <trkpt lat="47.58296" lon="7.38576">
        <ele>425.79</ele>
        <time>2016-08-20T06:33:04.000Z</time>
      </trkpt>
      <trkpt lat="47.58287" lon="7.38575">
        <ele>429.69</ele>
        <time>2016-08-20T06:33:11.000Z</time>
      </trkpt>
      <trkpt lat="47.58278" lon="7.38572">
        <ele>425.61</ele>
        <time>2016-08-20T06:33:17.000Z</time>
      </trkpt>
      <trkpt lat="47.58269" lon="7.38568">
        <ele>423.43</ele>
        <time>2016-08-20T06:33:22.000Z</time>
      </trkpt>
      <trkpt lat="47.5826" lon="7.38563">
        <ele>424.87</ele>
        <time>2016-08-20T06:33:29.000Z</time>
      </trkpt>
      <trkpt lat="47.5825" lon="7.38557">
        <ele>423.04</ele>
        <time>2016-08-20T06:33:36.000Z</time>
      </trkpt>
      <trkpt lat="47.58241" lon="7.38555">
        <ele>419.77</ele>
        <time>2016-08-20T06:33:42.000Z</time>
      </trkpt>
      <trkpt lat="47.58231" lon="7.38552">
        <ele>423.02</ele>
        <time>2016-08-20T06:33:49.000Z</time>
      </trkpt>
      <trkpt lat="47.58222" lon="7.38555">
        <ele>421.83</ele>
        <time>2016-08-20T06:33:55.000Z</time>
      </trkpt>
      <trkpt lat="47.58214" lon="7.38562">
        <ele>421.93</ele>
        <time>2016-08-20T06:34:03.000Z</time>
      </trkpt>
      <trkpt lat="47.58205" lon="7.38564">
        <ele>417.96</ele>
        <time>2016-08-20T06:34:08.000Z</time>
      </trkpt>
      <trkpt lat="47.58196" lon="7.3857">
        <ele>424.16</ele>
        <time>2016-08-20T06:34:14.000Z</time>
      </trkpt>
      <trkpt lat="47.58186" lon="7.38571">
        <ele>423.69</ele>
        <time>2016-08-20T06:34:21.000Z</time>
      </trkpt>
      <trkpt lat="47.58179" lon="7.38561">
        <ele>431.95</ele>
        <time>2016-08-20T06:34:29.000Z</time>
      </trkpt>
      <trkpt lat="47.58182" lon="7.38548">
        <ele>433.47</ele>
        <time>2016-08-20T06:34:35.000Z</time>
      </trkpt>
      <trkpt lat="47.58178" lon="7.38536">
        <ele>432.21</ele>
        <time>2016-08-20T06:34:42.000Z</time>
      </trkpt>
      <trkpt lat="47.58172" lon="7.38525">
        <ele>433.33</ele>
        <time>2016-08-20T06:34:48.000Z</time>
      </trkpt>
      <trkpt lat="47.58167" lon="7.38514">
        <ele>431.08</ele>
        <time>2016-08-20T06:34:55.000Z</time>
      </trkpt>
      <trkpt lat="47.5816" lon="7.38502">
        <ele>430.85</ele>
        <time>2016-08-20T06:35:02.000Z</time>
      </trkpt>
      <trkpt lat="47.58154" lon="7.38489">
        <ele>435.46</ele>
        <time>2016-08-20T06:35:10.000Z</time>
      </trkpt>
      <trkpt lat="47.58147" lon="7.38477">
        <ele>435.07</ele>
        <time>2016-08-20T06:35:17.000Z</time>
      </trkpt>
      <trkpt lat="47.58141" lon="7.38467">
        <ele>433.98</ele>
        <time>2016-08-20T06:35:23.000Z</time>
      </trkpt>
      <trkpt lat="47.58135" lon="7.38455">
        <ele>432.5</ele>
        <time>2016-08-20T06:35:29.000Z</time>
      </trkpt>
      <trkpt lat="47.58129" lon="7.38444">
        <ele>431.51</ele>
        <time>2016-08-20T06:35:35.000Z</time>
      </trkpt>
      <trkpt lat="47.58123" lon="7.38433">
        <ele>431.44</ele>
        <time>2016-08-20T06:35:42.000Z</time>
      </trkpt>
      <trkpt lat="47.58117" lon="7.38421">
        <ele>433.52</ele>
        <time>2016-08-20T06:35:48.000Z</time>
      </trkpt>
      <trkpt lat="47.5811" lon="7.3841">
        <ele>433.24</ele>
        <time>2016-08-20T06:35:54.000Z</time>
      </trkpt>
      <trkpt lat="47.58105" lon="7.38399">
        <ele>432.77</ele>
        <time>2016-08-20T06:36:00.000Z</time>
      </trkpt>
      <trkpt lat="47.58098" lon="7.38388">
        <ele>432.42</ele>
        <time>2016-08-20T06:36:06.000Z</time>
      </trkpt>
      <trkpt lat="47.58092" lon="7.38376">
        <ele>432.05</ele>
        <time>2016-08-20T06:36:13.000Z</time>
      </trkpt>
      <trkpt lat="47.58086" lon="7.38365">
        <ele>432.43</ele>
        <time>2016-08-20T06:36:20.000Z</time>
      </trkpt>
      <trkpt lat="47.5808" lon="7.38354">
        <ele>431.93</ele>
        <time>2016-08-20T06:36:26.000Z</time>
      </trkpt>
      <trkpt lat="47.58073" lon="7.38344">
        <ele>433.48</ele>
        <time>2016-08-20T06:36:32.000Z</time>
      </trkpt>
      <trkpt lat="47.58068" lon="7.38333">
        <ele>435.8</ele>
        <time>2016-08-20T06:36:38.000Z</time>
      </trkpt>
      <trkpt lat="47.58062" lon="7.38321">
        <ele>435.74</ele>
        <time>2016-08-20T06:36:44.000Z</time>
      </trkpt>
      <trkpt lat="47.58055" lon="7.3831">
        <ele>434.45</ele>
        <time>2016-08-20T06:36:50.000Z</time>
      </trkpt>
      <trkpt lat="47.58048" lon="7.38297">
        <ele>434.51</ele>
        <time>2016-08-20T06:36:57.000Z</time>
      </trkpt>
      <trkpt lat="47.58042" lon="7.38285">
        <ele>435.89</ele>
        <time>2016-08-20T06:37:04.000Z</time>
      </trkpt>
      <trkpt lat="47.58036" lon="7.38274">
        <ele>439.43</ele>
        <time>2016-08-20T06:37:10.000Z</time>
      </trkpt>
      <trkpt lat="47.58028" lon="7.38264">
        <ele>440.15</ele>
        <time>2016-08-20T06:37:17.000Z</time>
      </trkpt>
      <trkpt lat="47.58019" lon="7.38262">
        <ele>441.44</ele>
        <time>2016-08-20T06:37:23.000Z</time>
      </trkpt>
      <trkpt lat="47.5801" lon="7.38264">
        <ele>442.9</ele>
        <time>2016-08-20T06:37:29.000Z</time>
      </trkpt>
      <trkpt lat="47.58" lon="7.38264">
        <ele>446.25</ele>
        <time>2016-08-20T06:37:35.000Z</time>
      </trkpt>
      <trkpt lat="47.5799" lon="7.38263">
        <ele>442.81</ele>
        <time>2016-08-20T06:37:42.000Z</time>
      </trkpt>
      <trkpt lat="47.57981" lon="7.38258">
        <ele>443.66</ele>
        <time>2016-08-20T06:37:48.000Z</time>
      </trkpt>
      <trkpt lat="47.57972" lon="7.38252">
        <ele>442.64</ele>
        <time>2016-08-20T06:37:54.000Z</time>
      </trkpt>
      <trkpt lat="47.57962" lon="7.38245">
        <ele>441.34</ele>
        <time>2016-08-20T06:38:00.000Z</time>
      </trkpt>
      <trkpt lat="47.57955" lon="7.38237">
        <ele>443.18</ele>
        <time>2016-08-20T06:38:07.000Z</time>
      </trkpt>
      <trkpt lat="47.57946" lon="7.3823">
        <ele>443.2</ele>
        <time>2016-08-20T06:38:13.000Z</time>
      </trkpt>
      <trkpt lat="47.57938" lon="7.38221">
        <ele>444.93</ele>
        <time>2016-08-20T06:38:19.000Z</time>
      </trkpt>
      <trkpt lat="47.5793" lon="7.38215">
        <ele>444.27</ele>
        <time>2016-08-20T06:38:26.000Z</time>
      </trkpt>
      <trkpt lat="47.57921" lon="7.38208">
        <ele>443.23</ele>
        <time>2016-08-20T06:38:32.000Z</time>
      </trkpt>
      <trkpt lat="47.57914" lon="7.38201">
        <ele>446.05</ele>
        <time>2016-08-20T06:38:38.000Z</time>
      </trkpt>
      <trkpt lat="47.57906" lon="7.38194">
        <ele>446.38</ele>
        <time>2016-08-20T06:38:44.000Z</time>
      </trkpt>
      <trkpt lat="47.57897" lon="7.38187">
        <ele>445.64</ele>
        <time>2016-08-20T06:38:51.000Z</time>
      </trkpt>
      <trkpt lat="47.57888" lon="7.38179">
        <ele>445.59</ele>
        <time>2016-08-20T06:38:58.000Z</time>
      </trkpt>
      <trkpt lat="47.57879" lon="7.38171">
        <ele>448.37</ele>
        <time>2016-08-20T06:39:04.000Z</time>
      </trkpt>
      <trkpt lat="47.57871" lon="7.38165">
        <ele>447.81</ele>
        <time>2016-08-20T06:39:10.000Z</time>
      </trkpt>
      <trkpt lat="47.57862" lon="7.38156">
        <ele>448.68</ele>
        <time>2016-08-20T06:39:17.000Z</time>
      </trkpt>
      <trkpt lat="47.57854" lon="7.38148">
        <ele>449.59</ele>
        <time>2016-08-20T06:39:24.000Z</time>
      </trkpt>
      <trkpt lat="47.57846" lon="7.3814">
        <ele>453.61</ele>
        <time>2016-08-20T06:39:30.000Z</time>
      </trkpt>
      <trkpt lat="47.57839" lon="7.3813">
        <ele>452.97</ele>
        <time>2016-08-20T06:39:36.000Z</time>
      </trkpt>
      <trkpt lat="47.57831" lon="7.3812">
        <ele>452.44</ele>
        <time>2016-08-20T06:39:42.000Z</time>
      </trkpt>
      <trkpt lat="47.57826" lon="7.38109">
        <ele>450.36</ele>
        <time>2016-08-20T06:39:48.000Z</time>
      </trkpt>
      <trkpt lat="47.57818" lon="7.38098">
        <ele>451.75</ele>
        <time>2016-08-20T06:39:55.000Z</time>
      </trkpt>
      <trkpt lat="47.57811" lon="7.38088">
        <ele>452.28</ele>
        <time>2016-08-20T06:40:01.000Z</time>
      </trkpt>
      <trkpt lat="47.57805" lon="7.38077">
        <ele>455.07</ele>
        <time>2016-08-20T06:40:07.000Z</time>
      </trkpt>
      <trkpt lat="47.57797" lon="7.38066">
        <ele>454.01</ele>
        <time>2016-08-20T06:40:14.000Z</time>
      </trkpt>
      <trkpt lat="47.57792" lon="7.38055">
        <ele>456.76</ele>
        <time>2016-08-20T06:40:20.000Z</time>
      </trkpt>
      <trkpt lat="47.57785" lon="7.38045">
        <ele>455.85</ele>
        <time>2016-08-20T06:40:26.000Z</time>
      </trkpt>
      <trkpt lat="47.5778" lon="7.38032">
        <ele>454.02</ele>
        <time>2016-08-20T06:40:32.000Z</time>
      </trkpt>
      <trkpt lat="47.57773" lon="7.38023">
        <ele>452.62</ele>
        <time>2016-08-20T06:40:37.000Z</time>
      </trkpt>
      <trkpt lat="47.57766" lon="7.38013">
        <ele>452.18</ele>
        <time>2016-08-20T06:40:43.000Z</time>
      </trkpt>
      <trkpt lat="47.5776" lon="7.38003">
        <ele>452.39</ele>
        <time>2016-08-20T06:40:49.000Z</time>
      </trkpt>
      <trkpt lat="47.57753" lon="7.37992">
        <ele>455.92</ele>
        <time>2016-08-20T06:40:56.000Z</time>
      </trkpt>
      <trkpt lat="47.57748" lon="7.37981">
        <ele>458.06</ele>
        <time>2016-08-20T06:41:02.000Z</time>
      </trkpt>
      <trkpt lat="47.57741" lon="7.37969">
        <ele>461.09</ele>
        <time>2016-08-20T06:41:09.000Z</time>
      </trkpt>
      <trkpt lat="47.57737" lon="7.37957">
        <ele>460.26</ele>
        <time>2016-08-20T06:41:15.000Z</time>
      </trkpt>
      <trkpt lat="47.57731" lon="7.37947">
        <ele>462.58</ele>
        <time>2016-08-20T06:41:21.000Z</time>
      </trkpt>
      <trkpt lat="47.57725" lon="7.37936">
        <ele>469.88</ele>
        <time>2016-08-20T06:41:27.000Z</time>
      </trkpt>
      <trkpt lat="47.57719" lon="7.37923">
        <ele>467.35</ele>
        <time>2016-08-20T06:41:34.000Z</time>
      </trkpt>
      <trkpt lat="47.57713" lon="7.3791">
        <ele>465.25</ele>
        <time>2016-08-20T06:41:41.000Z</time>
      </trkpt>
      <trkpt lat="47.57707" lon="7.37898">
        <ele>464.28</ele>
        <time>2016-08-20T06:41:47.000Z</time>
      </trkpt>
      <trkpt lat="47.57701" lon="7.37886">
        <ele>465.04</ele>
        <time>2016-08-20T06:41:53.000Z</time>
      </trkpt>
      <trkpt lat="47.57696" lon="7.37874">
        <ele>465.75</ele>
        <time>2016-08-20T06:41:59.000Z</time>
      </trkpt>
      <trkpt lat="47.57691" lon="7.37863">
        <ele>461.46</ele>
        <time>2016-08-20T06:42:05.000Z</time>
      </trkpt>
      <trkpt lat="47.57685" lon="7.3785">
        <ele>460.23</ele>
        <time>2016-08-20T06:42:10.000Z</time>
      </trkpt>
      <trkpt lat="47.57681" lon="7.37838">
        <ele>459.66</ele>
        <time>2016-08-20T06:42:16.000Z</time>
      </trkpt>
      <trkpt lat="47.57675" lon="7.37826">
        <ele>463.41</ele>
        <time>2016-08-20T06:42:24.000Z</time>
      </trkpt>
      <trkpt lat="47.57669" lon="7.37815">
        <ele>466.43</ele>
        <time>2016-08-20T06:42:29.000Z</time>
      </trkpt>
      <trkpt lat="47.57666" lon="7.37801">
        <ele>463.89</ele>
        <time>2016-08-20T06:42:36.000Z</time>
      </trkpt>
      <trkpt lat="47.5766" lon="7.37791">
        <ele>462.78</ele>
        <time>2016-08-20T06:42:43.000Z</time>
      </trkpt>
      <trkpt lat="47.57654" lon="7.37779">
        <ele>461.19</ele>
        <time>2016-08-20T06:42:49.000Z</time>
      </trkpt>
      <trkpt lat="47.57649" lon="7.37765">
        <ele>460.21</ele>
        <time>2016-08-20T06:42:55.000Z</time>
      </trkpt>
      <trkpt lat="47.57642" lon="7.37753">
        <ele>460.82</ele>
        <time>2016-08-20T06:43:01.000Z</time>
      </trkpt>
      <trkpt lat="47.57637" lon="7.37741">
        <ele>460.87</ele>
        <time>2016-08-20T06:43:08.000Z</time>
      </trkpt>
      <trkpt lat="47.57632" lon="7.3773">
        <ele>462.62</ele>
        <time>2016-08-20T06:43:14.000Z</time>
      </trkpt>
      <trkpt lat="47.57629" lon="7.37717">
        <ele>463.97</ele>
        <time>2016-08-20T06:43:20.000Z</time>
      </trkpt>
      <trkpt lat="47.57625" lon="7.37703">
        <ele>465.97</ele>
        <time>2016-08-20T06:43:26.000Z</time>
      </trkpt>
      <trkpt lat="47.57619" lon="7.37691">
        <ele>464.76</ele>
        <time>2016-08-20T06:43:32.000Z</time>
      </trkpt>
      <trkpt lat="47.57614" lon="7.37677">
        <ele>463.26</ele>
        <time>2016-08-20T06:43:39.000Z</time>
      </trkpt>
      <trkpt lat="47.57608" lon="7.37665">
        <ele>461.68</ele>
        <time>2016-08-20T06:43:45.000Z</time>
      </trkpt>
      <trkpt lat="47.57604" lon="7.37651">
        <ele>462.12</ele>
        <time>2016-08-20T06:43:51.000Z</time>
      </trkpt>
      <trkpt lat="47.57599" lon="7.3764">
        <ele>463.58</ele>
        <time>2016-08-20T06:43:57.000Z</time>
      </trkpt>
      <trkpt lat="47.57596" lon="7.37626">
        <ele>466.2</ele>
        <time>2016-08-20T06:44:04.000Z</time>
      </trkpt>
      <trkpt lat="47.57592" lon="7.37613">
        <ele>466.41</ele>
        <time>2016-08-20T06:44:10.000Z</time>
      </trkpt>
      <trkpt lat="47.57587" lon="7.37599">
        <ele>464.34</ele>
        <time>2016-08-20T06:44:18.000Z</time>
      </trkpt>
      <trkpt lat="47.57584" lon="7.37587">
        <ele>464.93</ele>
        <time>2016-08-20T06:44:24.000Z</time>
      </trkpt>
      <trkpt lat="47.5758" lon="7.37573">
        <ele>466.65</ele>
        <time>2016-08-20T06:44:30.000Z</time>
      </trkpt>
      <trkpt lat="47.57576" lon="7.37561">
        <ele>466.91</ele>
        <time>2016-08-20T06:44:36.000Z</time>
      </trkpt>
      <trkpt lat="47.57572" lon="7.37548">
        <ele>465.74</ele>
        <time>2016-08-20T06:44:42.000Z</time>
      </trkpt>
      <trkpt lat="47.57567" lon="7.37534">
        <ele>466.76</ele>
        <time>2016-08-20T06:44:49.000Z</time>
      </trkpt>
      <trkpt lat="47.57563" lon="7.37522">
        <ele>469.52</ele>
        <time>2016-08-20T06:44:55.000Z</time>
      </trkpt>
      <trkpt lat="47.57558" lon="7.3751">
        <ele>469</ele>
        <time>2016-08-20T06:45:00.000Z</time>
      </trkpt>
      <trkpt lat="47.57554" lon="7.37498">
        <ele>468.62</ele>
        <time>2016-08-20T06:45:06.000Z</time>
      </trkpt>
      <trkpt lat="47.57551" lon="7.37485">
        <ele>470.49</ele>
        <time>2016-08-20T06:45:12.000Z</time>
      </trkpt>
      <trkpt lat="47.57547" lon="7.37471">
        <ele>473.66</ele>
        <time>2016-08-20T06:45:19.000Z</time>
      </trkpt>
      <trkpt lat="47.57543" lon="7.37458">
        <ele>472.36</ele>
        <time>2016-08-20T06:45:26.000Z</time>
      </trkpt>
      <trkpt lat="47.57539" lon="7.37445">
        <ele>474.08</ele>
        <time>2016-08-20T06:45:32.000Z</time>
      </trkpt>
      <trkpt lat="47.57535" lon="7.37432">
        <ele>475.14</ele>
        <time>2016-08-20T06:45:38.000Z</time>
      </trkpt>
      <trkpt lat="47.5753" lon="7.37419">
        <ele>477.41</ele>
        <time>2016-08-20T06:45:45.000Z</time>
      </trkpt>
      <trkpt lat="47.57525" lon="7.37406">
        <ele>475.68</ele>
        <time>2016-08-20T06:45:51.000Z</time>
      </trkpt>
      <trkpt lat="47.57522" lon="7.37392">
        <ele>475.03</ele>
        <time>2016-08-20T06:45:57.000Z</time>
      </trkpt>
      <trkpt lat="47.57517" lon="7.3738">
        <ele>475.75</ele>
        <time>2016-08-20T06:46:03.000Z</time>
      </trkpt>
      <trkpt lat="47.57514" lon="7.37367">
        <ele>479.75</ele>
        <time>2016-08-20T06:46:10.000Z</time>
      </trkpt>
      <trkpt lat="47.57506" lon="7.37358">
        <ele>477.92</ele>
        <time>2016-08-20T06:46:15.000Z</time>
      </trkpt>
      <trkpt lat="47.57497" lon="7.37354">
        <ele>479.8</ele>
        <time>2016-08-20T06:46:21.000Z</time>
      </trkpt>
      <trkpt lat="47.57487" lon="7.37353">
        <ele>480.23</ele>
        <time>2016-08-20T06:46:28.000Z</time>
      </trkpt>
      <trkpt lat="47.5748" lon="7.37346">
        <ele>478.6</ele>
        <time>2016-08-20T06:46:34.000Z</time>
      </trkpt>
      <trkpt lat="47.57472" lon="7.37335">
        <ele>479.97</ele>
        <time>2016-08-20T06:46:47.000Z</time>
      </trkpt>
      <trkpt lat="47.57465" lon="7.37327">
        <ele>479.9</ele>
        <time>2016-08-20T06:46:54.000Z</time>
      </trkpt>
      <trkpt lat="47.57458" lon="7.37315">
        <ele>480.99</ele>
        <time>2016-08-20T06:47:01.000Z</time>
      </trkpt>
      <trkpt lat="47.57451" lon="7.37305">
        <ele>483.08</ele>
        <time>2016-08-20T06:47:08.000Z</time>
      </trkpt>
      <trkpt lat="47.57443" lon="7.37295">
        <ele>482.99</ele>
        <time>2016-08-20T06:47:16.000Z</time>
      </trkpt>
      <trkpt lat="47.57436" lon="7.37287">
        <ele>482.76</ele>
        <time>2016-08-20T06:47:23.000Z</time>
      </trkpt>
      <trkpt lat="47.57429" lon="7.37275">
        <ele>483.01</ele>
        <time>2016-08-20T06:47:30.000Z</time>
      </trkpt>
      <trkpt lat="47.57422" lon="7.37264">
        <ele>483.75</ele>
        <time>2016-08-20T06:47:37.000Z</time>
      </trkpt>
      <trkpt lat="47.57414" lon="7.37255">
        <ele>483.25</ele>
        <time>2016-08-20T06:47:43.000Z</time>
      </trkpt>
      <trkpt lat="47.57407" lon="7.37246">
        <ele>483.59</ele>
        <time>2016-08-20T06:47:49.000Z</time>
      </trkpt>
      <trkpt lat="47.574" lon="7.37236">
        <ele>485.99</ele>
        <time>2016-08-20T06:47:57.000Z</time>
      </trkpt>
      <trkpt lat="47.57393" lon="7.37225">
        <ele>485</ele>
        <time>2016-08-20T06:48:04.000Z</time>
      </trkpt>
      <trkpt lat="47.57385" lon="7.37215">
        <ele>485.39</ele>
        <time>2016-08-20T06:48:09.000Z</time>
      </trkpt>
      <trkpt lat="47.57378" lon="7.37205">
        <ele>484.48</ele>
        <time>2016-08-20T06:48:16.000Z</time>
      </trkpt>
      <trkpt lat="47.57371" lon="7.37195">
        <ele>482.51</ele>
        <time>2016-08-20T06:48:22.000Z</time>
      </trkpt>
      <trkpt lat="47.57364" lon="7.37185">
        <ele>481.75</ele>
        <time>2016-08-20T06:48:29.000Z</time>
      </trkpt>
      <trkpt lat="47.57357" lon="7.37176">
        <ele>483.28</ele>
        <time>2016-08-20T06:48:36.000Z</time>
      </trkpt>
      <trkpt lat="47.57349" lon="7.37165">
        <ele>484.11</ele>
        <time>2016-08-20T06:48:42.000Z</time>
      </trkpt>
      <trkpt lat="47.57341" lon="7.37156">
        <ele>482.87</ele>
        <time>2016-08-20T06:48:48.000Z</time>
      </trkpt>
      <trkpt lat="47.57335" lon="7.37146">
        <ele>484.03</ele>
        <time>2016-08-20T06:48:54.000Z</time>
      </trkpt>
      <trkpt lat="47.57327" lon="7.37138">
        <ele>483.46</ele>
        <time>2016-08-20T06:48:59.000Z</time>
      </trkpt>
      <trkpt lat="47.57321" lon="7.37126">
        <ele>483.85</ele>
        <time>2016-08-20T06:49:05.000Z</time>
      </trkpt>
      <trkpt lat="47.57314" lon="7.37116">
        <ele>484.02</ele>
        <time>2016-08-20T06:49:12.000Z</time>
      </trkpt>
      <trkpt lat="47.57307" lon="7.37106">
        <ele>482.84</ele>
        <time>2016-08-20T06:49:18.000Z</time>
      </trkpt>
      <trkpt lat="47.57301" lon="7.37095">
        <ele>485.38</ele>
        <time>2016-08-20T06:49:24.000Z</time>
      </trkpt>
      <trkpt lat="47.57294" lon="7.37086">
        <ele>482.58</ele>
        <time>2016-08-20T06:49:30.000Z</time>
      </trkpt>
      <trkpt lat="47.57285" lon="7.37078">
        <ele>480.77</ele>
        <time>2016-08-20T06:49:36.000Z</time>
      </trkpt>
      <trkpt lat="47.57277" lon="7.37069">
        <ele>481.47</ele>
        <time>2016-08-20T06:49:43.000Z</time>
      </trkpt>
      <trkpt lat="47.57269" lon="7.37059">
        <ele>481.14</ele>
        <time>2016-08-20T06:49:49.000Z</time>
      </trkpt>
      <trkpt lat="47.57262" lon="7.3705">
        <ele>479.13</ele>
        <time>2016-08-20T06:49:55.000Z</time>
      </trkpt>
      <trkpt lat="47.57254" lon="7.37043">
        <ele>479.22</ele>
        <time>2016-08-20T06:50:01.000Z</time>
      </trkpt>
      <trkpt lat="47.57247" lon="7.37034">
        <ele>480.24</ele>
        <time>2016-08-20T06:50:07.000Z</time>
      </trkpt>
      <trkpt lat="47.57238" lon="7.37025">
        <ele>477.71</ele>
        <time>2016-08-20T06:50:14.000Z</time>
      </trkpt>
      <trkpt lat="47.57231" lon="7.37016">
        <ele>483.4</ele>
        <time>2016-08-20T06:50:21.000Z</time>
      </trkpt>
      <trkpt lat="47.57223" lon="7.37006">
        <ele>481.97</ele>
        <time>2016-08-20T06:50:28.000Z</time>
      </trkpt>
      <trkpt lat="47.57216" lon="7.36998">
        <ele>478.72</ele>
        <time>2016-08-20T06:50:35.000Z</time>
      </trkpt>
      <trkpt lat="47.57208" lon="7.36989">
        <ele>475.48</ele>
        <time>2016-08-20T06:50:40.000Z</time>
      </trkpt>
      <trkpt lat="47.57201" lon="7.36978">
        <ele>478.82</ele>
        <time>2016-08-20T06:50:46.000Z</time>
      </trkpt>
      <trkpt lat="47.57193" lon="7.3697">
        <ele>478.04</ele>
        <time>2016-08-20T06:50:52.000Z</time>
      </trkpt>
      <trkpt lat="47.57195" lon="7.36955">
        <ele>480.81</ele>
        <time>2016-08-20T06:50:59.000Z</time>
      </trkpt>
      <trkpt lat="47.57197" lon="7.3694">
        <ele>481.36</ele>
        <time>2016-08-20T06:51:06.000Z</time>
      </trkpt>
      <trkpt lat="47.572" lon="7.36927">
        <ele>480.83</ele>
        <time>2016-08-20T06:51:12.000Z</time>
      </trkpt>
      <trkpt lat="47.57203" lon="7.36912">
        <ele>478.03</ele>
        <time>2016-08-20T06:51:19.000Z</time>
      </trkpt>
      <trkpt lat="47.57206" lon="7.369">
        <ele>477.95</ele>
        <time>2016-08-20T06:51:25.000Z</time>
      </trkpt>
      <trkpt lat="47.57208" lon="7.36887">
        <ele>472.44</ele>
        <time>2016-08-20T06:51:31.000Z</time>
      </trkpt>
      <trkpt lat="47.57212" lon="7.36874">
        <ele>475.82</ele>
        <time>2016-08-20T06:51:37.000Z</time>
      </trkpt>
      <trkpt lat="47.5722" lon="7.36862">
        <ele>476.96</ele>
        <time>2016-08-20T06:51:44.000Z</time>
      </trkpt>
      <trkpt lat="47.57223" lon="7.36847">
        <ele>476.97</ele>
        <time>2016-08-20T06:51:51.000Z</time>
      </trkpt>
      <trkpt lat="47.57225" lon="7.36833">
        <ele>479.97</ele>
        <time>2016-08-20T06:51:57.000Z</time>
      </trkpt>
      <trkpt lat="47.5723" lon="7.3682">
        <ele>477.93</ele>
        <time>2016-08-20T06:52:03.000Z</time>
      </trkpt>
      <trkpt lat="47.57235" lon="7.36807">
        <ele>480.38</ele>
        <time>2016-08-20T06:52:09.000Z</time>
      </trkpt>
      <trkpt lat="47.5724" lon="7.36794">
        <ele>482.49</ele>
        <time>2016-08-20T06:52:16.000Z</time>
      </trkpt>
      <trkpt lat="47.57245" lon="7.3678">
        <ele>480.02</ele>
        <time>2016-08-20T06:52:23.000Z</time>
      </trkpt>
      <trkpt lat="47.57249" lon="7.36766">
        <ele>479.4</ele>
        <time>2016-08-20T06:52:30.000Z</time>
      </trkpt>
      <trkpt lat="47.57255" lon="7.36754">
        <ele>484.53</ele>
        <time>2016-08-20T06:52:36.000Z</time>
      </trkpt>
      <trkpt lat="47.57259" lon="7.36742">
        <ele>485.61</ele>
        <time>2016-08-20T06:52:42.000Z</time>
      </trkpt>
      <trkpt lat="47.5726" lon="7.36728">
        <ele>480.79</ele>
        <time>2016-08-20T06:52:48.000Z</time>
      </trkpt>
      <trkpt lat="47.57262" lon="7.36713">
        <ele>478.27</ele>
        <time>2016-08-20T06:52:54.000Z</time>
      </trkpt>
      <trkpt lat="47.57265" lon="7.367">
        <ele>476.38</ele>
        <time>2016-08-20T06:52:59.000Z</time>
      </trkpt>
      <trkpt lat="47.5727" lon="7.36688">
        <ele>478.1</ele>
        <time>2016-08-20T06:53:05.000Z</time>
      </trkpt>
      <trkpt lat="47.57273" lon="7.36674">
        <ele>474.88</ele>
        <time>2016-08-20T06:53:12.000Z</time>
      </trkpt>
      <trkpt lat="47.57276" lon="7.36659">
        <ele>473.11</ele>
        <time>2016-08-20T06:53:19.000Z</time>
      </trkpt>
      <trkpt lat="47.57281" lon="7.36647">
        <ele>476.48</ele>
        <time>2016-08-20T06:53:24.000Z</time>
      </trkpt>
      <trkpt lat="47.57285" lon="7.36635">
        <ele>474.14</ele>
        <time>2016-08-20T06:53:30.000Z</time>
      </trkpt>
      <trkpt lat="47.57289" lon="7.36622">
        <ele>473.32</ele>
        <time>2016-08-20T06:53:36.000Z</time>
      </trkpt>
      <trkpt lat="47.57293" lon="7.36608">
        <ele>472.93</ele>
        <time>2016-08-20T06:53:43.000Z</time>
      </trkpt>
      <trkpt lat="47.57298" lon="7.36595">
        <ele>474.77</ele>
        <time>2016-08-20T06:53:49.000Z</time>
      </trkpt>
      <trkpt lat="47.57303" lon="7.36581">
        <ele>478.7</ele>
        <time>2016-08-20T06:53:56.000Z</time>
      </trkpt>
      <trkpt lat="47.57309" lon="7.36569">
        <ele>483.66</ele>
        <time>2016-08-20T06:54:02.000Z</time>
      </trkpt>
      <trkpt lat="47.57308" lon="7.36555">
        <ele>491.15</ele>
        <time>2016-08-20T06:54:08.000Z</time>
      </trkpt>
      <trkpt lat="47.5731" lon="7.36541">
        <ele>486.71</ele>
        <time>2016-08-20T06:54:14.000Z</time>
      </trkpt>
      <trkpt lat="47.57315" lon="7.36528">
        <ele>481.67</ele>
        <time>2016-08-20T06:54:21.000Z</time>
      </trkpt>
      <trkpt lat="47.57322" lon="7.36518">
        <ele>476.65</ele>
        <time>2016-08-20T06:54:27.000Z</time>
      </trkpt>
      <trkpt lat="47.57326" lon="7.36504">
        <ele>479.37</ele>
        <time>2016-08-20T06:54:34.000Z</time>
      </trkpt>
      <trkpt lat="47.57328" lon="7.36489">
        <ele>486.1</ele>
        <time>2016-08-20T06:54:39.000Z</time>
      </trkpt>
      <trkpt lat="47.57329" lon="7.36476">
        <ele>482.34</ele>
        <time>2016-08-20T06:54:45.000Z</time>
      </trkpt>
      <trkpt lat="47.5733" lon="7.36462">
        <ele>479.81</ele>
        <time>2016-08-20T06:54:52.000Z</time>
      </trkpt>
      <trkpt lat="47.57333" lon="7.36448">
        <ele>480.34</ele>
        <time>2016-08-20T06:54:59.000Z</time>
      </trkpt>
      <trkpt lat="47.57338" lon="7.36435">
        <ele>472.9</ele>
        <time>2016-08-20T06:55:05.000Z</time>
      </trkpt>
      <trkpt lat="47.57341" lon="7.36422">
        <ele>474.13</ele>
        <time>2016-08-20T06:55:11.000Z</time>
      </trkpt>
      <trkpt lat="47.57341" lon="7.36408">
        <ele>475.36</ele>
        <time>2016-08-20T06:55:17.000Z</time>
      </trkpt>
      <trkpt lat="47.57341" lon="7.36395">
        <ele>476.73</ele>
        <time>2016-08-20T06:55:24.000Z</time>
      </trkpt>
      <trkpt lat="47.57341" lon="7.3638">
        <ele>483.94</ele>
        <time>2016-08-20T06:55:30.000Z</time>
      </trkpt>
      <trkpt lat="47.57345" lon="7.36365">
        <ele>485.78</ele>
        <time>2016-08-20T06:55:38.000Z</time>
      </trkpt>
      <trkpt lat="47.57349" lon="7.36351">
        <ele>481.96</ele>
        <time>2016-08-20T06:55:44.000Z</time>
      </trkpt>
      <trkpt lat="47.57349" lon="7.36337">
        <ele>483.03</ele>
        <time>2016-08-20T06:55:48.000Z</time>
      </trkpt>
      <trkpt lat="47.57352" lon="7.36321">
        <ele>476.84</ele>
        <time>2016-08-20T06:55:56.000Z</time>
      </trkpt>
      <trkpt lat="47.57352" lon="7.36308">
        <ele>481.75</ele>
        <time>2016-08-20T06:56:01.000Z</time>
      </trkpt>
      <trkpt lat="47.57356" lon="7.36296">
        <ele>481.47</ele>
        <time>2016-08-20T06:56:07.000Z</time>
      </trkpt>
      <trkpt lat="47.57367" lon="7.36292">
        <ele>477.95</ele>
        <time>2016-08-20T06:56:16.000Z</time>
      </trkpt>
      <trkpt lat="47.57375" lon="7.36297">
        <ele>485.84</ele>
        <time>2016-08-20T06:56:22.000Z</time>
      </trkpt>
      <trkpt lat="47.57378" lon="7.36309">
        <ele>487.96</ele>
        <time>2016-08-20T07:00:01.000Z</time>
      </trkpt>
      <trkpt lat="47.57367" lon="7.36284">
        <ele>477.3</ele>
        <time>2016-08-20T07:04:14.000Z</time>
      </trkpt>
      <trkpt lat="47.57364" lon="7.36298">
        <ele>476.81</ele>
        <time>2016-08-20T07:04:19.000Z</time>
      </trkpt>
      <trkpt lat="47.57354" lon="7.363">
        <ele>481.68</ele>
        <time>2016-08-20T07:05:35.000Z</time>
      </trkpt>
      <trkpt lat="47.57361" lon="7.3629">
        <ele>516.41</ele>
        <time>2016-08-20T07:06:01.000Z</time>
      </trkpt>
      <trkpt lat="47.57371" lon="7.36295">
        <ele>509.33</ele>
        <time>2016-08-20T07:06:11.000Z</time>
      </trkpt>
      <trkpt lat="47.57378" lon="7.36303">
        <ele>494.02</ele>
        <time>2016-08-20T07:07:21.000Z</time>
      </trkpt>
      <trkpt lat="47.57369" lon="7.36302">
        <ele>495.75</ele>
        <time>2016-08-20T07:11:04.000Z</time>
      </trkpt>
      <trkpt lat="47.57378" lon="7.36303">
        <ele>487.89</ele>
        <time>2016-08-20T07:12:33.000Z</time>
      </trkpt>
      <trkpt lat="47.5737" lon="7.36307">
        <ele>487.55</ele>
        <time>2016-08-20T07:13:33.000Z</time>
      </trkpt>
      <trkpt lat="47.57361" lon="7.36308">
        <ele>490.85</ele>
        <time>2016-08-20T07:14:09.000Z</time>
      </trkpt>
      <trkpt lat="47.57369" lon="7.36302">
        <ele>491.93</ele>
        <time>2016-08-20T07:16:38.000Z</time>
      </trkpt>
      <trkpt lat="47.57375" lon="7.36311">
        <ele>488.2</ele>
        <time>2016-08-20T07:18:55.000Z</time>
      </trkpt>
      <trkpt lat="47.57365" lon="7.36315">
        <ele>489.33</ele>
        <time>2016-08-20T07:24:19.000Z</time>
      </trkpt>
      <trkpt lat="47.57374" lon="7.36311">
        <ele>483.64</ele>
        <time>2016-08-20T07:30:23.000Z</time>
      </trkpt>
      <trkpt lat="47.57367" lon="7.36321">
        <ele>495.74</ele>
        <time>2016-08-20T07:33:32.000Z</time>
      </trkpt>
      <trkpt lat="47.57374" lon="7.36312">
        <ele>480.38</ele>
        <time>2016-08-20T07:37:55.000Z</time>
      </trkpt>
      <trkpt lat="47.57374" lon="7.36298">
        <ele>477.76</ele>
        <time>2016-08-20T07:44:00.000Z</time>
      </trkpt>
      <trkpt lat="47.57366" lon="7.36291">
        <ele>478.59</ele>
        <time>2016-08-20T07:44:15.000Z</time>
      </trkpt>
      <trkpt lat="47.57357" lon="7.36284">
        <ele>474.35</ele>
        <time>2016-08-20T07:44:26.000Z</time>
      </trkpt>
      <trkpt lat="47.57359" lon="7.36269">
        <ele>464.3</ele>
        <time>2016-08-20T07:44:36.000Z</time>
      </trkpt>
      <trkpt lat="47.57363" lon="7.36257">
        <ele>463.27</ele>
        <time>2016-08-20T07:44:45.000Z</time>
      </trkpt>
      <trkpt lat="47.57364" lon="7.36241">
        <ele>467.12</ele>
        <time>2016-08-20T07:44:53.000Z</time>
      </trkpt>
      <trkpt lat="47.57364" lon="7.36228">
        <ele>460.81</ele>
        <time>2016-08-20T07:45:00.000Z</time>
      </trkpt>
      <trkpt lat="47.57364" lon="7.36211">
        <ele>464.02</ele>
        <time>2016-08-20T07:45:07.000Z</time>
      </trkpt>
      <trkpt lat="47.57363" lon="7.36193">
        <ele>474.58</ele>
        <time>2016-08-20T07:45:12.000Z</time>
      </trkpt>
      <trkpt lat="47.57363" lon="7.36178">
        <ele>466.11</ele>
        <time>2016-08-20T07:45:19.000Z</time>
      </trkpt>
      <trkpt lat="47.57367" lon="7.36166">
        <ele>463.84</ele>
        <time>2016-08-20T07:45:28.000Z</time>
      </trkpt>
      <trkpt lat="47.57365" lon="7.36152">
        <ele>469.51</ele>
        <time>2016-08-20T07:45:34.000Z</time>
      </trkpt>
      <trkpt lat="47.57368" lon="7.36138">
        <ele>476.23</ele>
        <time>2016-08-20T07:46:11.000Z</time>
      </trkpt>
      <trkpt lat="47.57373" lon="7.36127">
        <ele>482.08</ele>
        <time>2016-08-20T07:46:18.000Z</time>
      </trkpt>
      <trkpt lat="47.57372" lon="7.36112">
        <ele>475.87</ele>
        <time>2016-08-20T07:46:46.000Z</time>
      </trkpt>
      <trkpt lat="47.57377" lon="7.36099">
        <ele>471.82</ele>
        <time>2016-08-20T07:47:01.000Z</time>
      </trkpt>
      <trkpt lat="47.5738" lon="7.36085">
        <ele>475.91</ele>
        <time>2016-08-20T07:47:10.000Z</time>
      </trkpt>
      <trkpt lat="47.57381" lon="7.36071">
        <ele>481.91</ele>
        <time>2016-08-20T07:47:18.000Z</time>
      </trkpt>
      <trkpt lat="47.57386" lon="7.36059">
        <ele>490.05</ele>
        <time>2016-08-20T07:47:22.000Z</time>
      </trkpt>
      <trkpt lat="47.57389" lon="7.36043">
        <ele>486.7</ele>
        <time>2016-08-20T07:47:27.000Z</time>
      </trkpt>
      <trkpt lat="47.57396" lon="7.36032">
        <ele>493.25</ele>
        <time>2016-08-20T07:47:30.000Z</time>
      </trkpt>
      <trkpt lat="47.57398" lon="7.36017">
        <ele>486.91</ele>
        <time>2016-08-20T07:47:37.000Z</time>
      </trkpt>
      <trkpt lat="47.57401" lon="7.36004">
        <ele>490.65</ele>
        <time>2016-08-20T07:47:45.000Z</time>
      </trkpt>
      <trkpt lat="47.57407" lon="7.35991">
        <ele>495.44</ele>
        <time>2016-08-20T07:47:53.000Z</time>
      </trkpt>
      <trkpt lat="47.57409" lon="7.35976">
        <ele>491.33</ele>
        <time>2016-08-20T07:48:02.000Z</time>
      </trkpt>
      <trkpt lat="47.57415" lon="7.35966">
        <ele>496.59</ele>
        <time>2016-08-20T07:48:06.000Z</time>
      </trkpt>
      <trkpt lat="47.5742" lon="7.35954">
        <ele>490.78</ele>
        <time>2016-08-20T07:48:12.000Z</time>
      </trkpt>
      <trkpt lat="47.57423" lon="7.35939">
        <ele>489.73</ele>
        <time>2016-08-20T07:48:19.000Z</time>
      </trkpt>
      <trkpt lat="47.57427" lon="7.35926">
        <ele>481.08</ele>
        <time>2016-08-20T07:48:26.000Z</time>
      </trkpt>
      <trkpt lat="47.57428" lon="7.35911">
        <ele>479.42</ele>
        <time>2016-08-20T07:48:35.000Z</time>
      </trkpt>
      <trkpt lat="47.57432" lon="7.35897">
        <ele>478.38</ele>
        <time>2016-08-20T07:48:40.000Z</time>
      </trkpt>
      <trkpt lat="47.57441" lon="7.3589">
        <ele>472.57</ele>
        <time>2016-08-20T07:48:46.000Z</time>
      </trkpt>
      <trkpt lat="47.57446" lon="7.35875">
        <ele>472.68</ele>
        <time>2016-08-20T07:48:51.000Z</time>
      </trkpt>
      <trkpt lat="47.57448" lon="7.35862">
        <ele>466.79</ele>
        <time>2016-08-20T07:48:55.000Z</time>
      </trkpt>
      <trkpt lat="47.57451" lon="7.35849">
        <ele>470.97</ele>
        <time>2016-08-20T07:49:01.000Z</time>
      </trkpt>
      <trkpt lat="47.57451" lon="7.35835">
        <ele>476.92</ele>
        <time>2016-08-20T07:49:05.000Z</time>
      </trkpt>
      <trkpt lat="47.57457" lon="7.35823">
        <ele>472.91</ele>
        <time>2016-08-20T07:49:10.000Z</time>
      </trkpt>
      <trkpt lat="47.5746" lon="7.3581">
        <ele>482.54</ele>
        <time>2016-08-20T07:49:22.000Z</time>
      </trkpt>
      <trkpt lat="47.57467" lon="7.35799">
        <ele>488.99</ele>
        <time>2016-08-20T07:49:27.000Z</time>
      </trkpt>
      <trkpt lat="47.57468" lon="7.35784">
        <ele>490.65</ele>
        <time>2016-08-20T07:49:33.000Z</time>
      </trkpt>
      <trkpt lat="47.57469" lon="7.3577">
        <ele>479.57</ele>
        <time>2016-08-20T07:49:41.000Z</time>
      </trkpt>
      <trkpt lat="47.57474" lon="7.35756">
        <ele>486.18</ele>
        <time>2016-08-20T07:49:45.000Z</time>
      </trkpt>
      <trkpt lat="47.5748" lon="7.35745">
        <ele>479.66</ele>
        <time>2016-08-20T07:49:51.000Z</time>
      </trkpt>
      <trkpt lat="47.57481" lon="7.3573">
        <ele>483.76</ele>
        <time>2016-08-20T07:49:57.000Z</time>
      </trkpt>
      <trkpt lat="47.57486" lon="7.35716">
        <ele>482.31</ele>
        <time>2016-08-20T07:50:13.000Z</time>
      </trkpt>
      <trkpt lat="47.57488" lon="7.35701">
        <ele>483.68</ele>
        <time>2016-08-20T07:50:20.000Z</time>
      </trkpt>
      <trkpt lat="47.57493" lon="7.35687">
        <ele>490.09</ele>
        <time>2016-08-20T07:50:25.000Z</time>
      </trkpt>
      <trkpt lat="47.57498" lon="7.35675">
        <ele>468.9</ele>
        <time>2016-08-20T07:50:31.000Z</time>
      </trkpt>
      <trkpt lat="47.57501" lon="7.35661">
        <ele>464.84</ele>
        <time>2016-08-20T07:50:38.000Z</time>
      </trkpt>
      <trkpt lat="47.57502" lon="7.35645">
        <ele>466.72</ele>
        <time>2016-08-20T07:50:49.000Z</time>
      </trkpt>
      <trkpt lat="47.57509" lon="7.35635">
        <ele>466.07</ele>
        <time>2016-08-20T07:50:53.000Z</time>
      </trkpt>
      <trkpt lat="47.57512" lon="7.35622">
        <ele>471.54</ele>
        <time>2016-08-20T07:51:00.000Z</time>
      </trkpt>
      <trkpt lat="47.57512" lon="7.35608">
        <ele>471.43</ele>
        <time>2016-08-20T07:51:07.000Z</time>
      </trkpt>
      <trkpt lat="47.57519" lon="7.35597">
        <ele>474.52</ele>
        <time>2016-08-20T07:51:12.000Z</time>
      </trkpt>
      <trkpt lat="47.57524" lon="7.35586">
        <ele>474.21</ele>
        <time>2016-08-20T07:51:18.000Z</time>
      </trkpt>
      <trkpt lat="47.57533" lon="7.35579">
        <ele>476.97</ele>
        <time>2016-08-20T07:51:26.000Z</time>
      </trkpt>
      <trkpt lat="47.57542" lon="7.35573">
        <ele>479.95</ele>
        <time>2016-08-20T07:51:33.000Z</time>
      </trkpt>
      <trkpt lat="47.57551" lon="7.35567">
        <ele>481.73</ele>
        <time>2016-08-20T07:51:38.000Z</time>
      </trkpt>
      <trkpt lat="47.5756" lon="7.35564">
        <ele>486.41</ele>
        <time>2016-08-20T07:51:43.000Z</time>
      </trkpt>
      <trkpt lat="47.57569" lon="7.35566">
        <ele>487.52</ele>
        <time>2016-08-20T07:51:51.000Z</time>
      </trkpt>
      <trkpt lat="47.57578" lon="7.35568">
        <ele>492.75</ele>
        <time>2016-08-20T07:51:56.000Z</time>
      </trkpt>
      <trkpt lat="47.57587" lon="7.35572">
        <ele>493.69</ele>
        <time>2016-08-20T07:52:01.000Z</time>
      </trkpt>
      <trkpt lat="47.57596" lon="7.35576">
        <ele>490.3</ele>
        <time>2016-08-20T07:52:06.000Z</time>
      </trkpt>
      <trkpt lat="47.57605" lon="7.35585">
        <ele>492.95</ele>
        <time>2016-08-20T07:52:15.000Z</time>
      </trkpt>
      <trkpt lat="47.57615" lon="7.35592">
        <ele>483.9</ele>
        <time>2016-08-20T07:52:24.000Z</time>
      </trkpt>
      <trkpt lat="47.57623" lon="7.35598">
        <ele>481.68</ele>
        <time>2016-08-20T07:52:30.000Z</time>
      </trkpt>
      <trkpt lat="47.57631" lon="7.35604">
        <ele>481.13</ele>
        <time>2016-08-20T07:52:37.000Z</time>
      </trkpt>
      <trkpt lat="47.5764" lon="7.35608">
        <ele>478.72</ele>
        <time>2016-08-20T07:52:44.000Z</time>
      </trkpt>
      <trkpt lat="47.57649" lon="7.35612">
        <ele>480.3</ele>
        <time>2016-08-20T07:52:51.000Z</time>
      </trkpt>
      <trkpt lat="47.57659" lon="7.35616">
        <ele>480.09</ele>
        <time>2016-08-20T07:52:57.000Z</time>
      </trkpt>
      <trkpt lat="47.57668" lon="7.35621">
        <ele>476.14</ele>
        <time>2016-08-20T07:53:03.000Z</time>
      </trkpt>
      <trkpt lat="47.57676" lon="7.3563">
        <ele>473.1</ele>
        <time>2016-08-20T07:53:11.000Z</time>
      </trkpt>
      <trkpt lat="47.57686" lon="7.35632">
        <ele>478.69</ele>
        <time>2016-08-20T07:53:17.000Z</time>
      </trkpt>
      <trkpt lat="47.57695" lon="7.35636">
        <ele>478.88</ele>
        <time>2016-08-20T07:53:24.000Z</time>
      </trkpt>
      <trkpt lat="47.57705" lon="7.3564">
        <ele>474.81</ele>
        <time>2016-08-20T07:53:28.000Z</time>
      </trkpt>
      <trkpt lat="47.57713" lon="7.35644">
        <ele>476.36</ele>
        <time>2016-08-20T07:53:33.000Z</time>
      </trkpt>
      <trkpt lat="47.57722" lon="7.35651">
        <ele>475.88</ele>
        <time>2016-08-20T07:53:41.000Z</time>
      </trkpt>
      <trkpt lat="47.57732" lon="7.35657">
        <ele>472.28</ele>
        <time>2016-08-20T07:53:49.000Z</time>
      </trkpt>
      <trkpt lat="47.57742" lon="7.35661">
        <ele>475.18</ele>
        <time>2016-08-20T07:53:57.000Z</time>
      </trkpt>
      <trkpt lat="47.5775" lon="7.35666">
        <ele>474.13</ele>
        <time>2016-08-20T07:54:03.000Z</time>
      </trkpt>
      <trkpt lat="47.57759" lon="7.3567">
        <ele>473</ele>
        <time>2016-08-20T07:54:08.000Z</time>
      </trkpt>
      <trkpt lat="47.57769" lon="7.35674">
        <ele>474.49</ele>
        <time>2016-08-20T07:54:16.000Z</time>
      </trkpt>
      <trkpt lat="47.57778" lon="7.35681">
        <ele>472.95</ele>
        <time>2016-08-20T07:54:22.000Z</time>
      </trkpt>
      <trkpt lat="47.57788" lon="7.35685">
        <ele>473.69</ele>
        <time>2016-08-20T07:54:30.000Z</time>
      </trkpt>
      <trkpt lat="47.57798" lon="7.35688">
        <ele>473.82</ele>
        <time>2016-08-20T07:54:36.000Z</time>
      </trkpt>
      <trkpt lat="47.57807" lon="7.35692">
        <ele>471.99</ele>
        <time>2016-08-20T07:54:43.000Z</time>
      </trkpt>
      <trkpt lat="47.57817" lon="7.35697">
        <ele>469.17</ele>
        <time>2016-08-20T07:54:50.000Z</time>
      </trkpt>
      <trkpt lat="47.57826" lon="7.357">
        <ele>470.63</ele>
        <time>2016-08-20T07:54:55.000Z</time>
      </trkpt>
      <trkpt lat="47.57836" lon="7.35697">
        <ele>466.44</ele>
        <time>2016-08-20T07:55:04.000Z</time>
      </trkpt>
      <trkpt lat="47.57844" lon="7.35688">
        <ele>462.82</ele>
        <time>2016-08-20T07:55:11.000Z</time>
      </trkpt>
      <trkpt lat="47.57851" lon="7.35678">
        <ele>466.08</ele>
        <time>2016-08-20T07:55:17.000Z</time>
      </trkpt>
      <trkpt lat="47.57855" lon="7.35665">
        <ele>469.23</ele>
        <time>2016-08-20T07:55:23.000Z</time>
      </trkpt>
      <trkpt lat="47.57859" lon="7.35652">
        <ele>473.34</ele>
        <time>2016-08-20T07:55:29.000Z</time>
      </trkpt>
      <trkpt lat="47.57866" lon="7.3564">
        <ele>470.05</ele>
        <time>2016-08-20T07:55:37.000Z</time>
      </trkpt>
      <trkpt lat="47.5787" lon="7.35626">
        <ele>475.62</ele>
        <time>2016-08-20T07:55:44.000Z</time>
      </trkpt>
      <trkpt lat="47.57876" lon="7.35616">
        <ele>473.77</ele>
        <time>2016-08-20T07:55:49.000Z</time>
      </trkpt>
      <trkpt lat="47.57882" lon="7.35604">
        <ele>475.73</ele>
        <time>2016-08-20T07:55:54.000Z</time>
      </trkpt>
      <trkpt lat="47.57889" lon="7.35595">
        <ele>467.44</ele>
        <time>2016-08-20T07:56:02.000Z</time>
      </trkpt>
      <trkpt lat="47.57897" lon="7.35586">
        <ele>463.84</ele>
        <time>2016-08-20T07:56:10.000Z</time>
      </trkpt>
      <trkpt lat="47.57905" lon="7.35575">
        <ele>460.86</ele>
        <time>2016-08-20T07:56:17.000Z</time>
      </trkpt>
      <trkpt lat="47.57912" lon="7.35565">
        <ele>461.49</ele>
        <time>2016-08-20T07:56:25.000Z</time>
      </trkpt>
      <trkpt lat="47.57918" lon="7.35554">
        <ele>453.66</ele>
        <time>2016-08-20T07:56:46.000Z</time>
      </trkpt>
      <trkpt lat="47.57925" lon="7.35543">
        <ele>456.9</ele>
        <time>2016-08-20T07:56:53.000Z</time>
      </trkpt>
      <trkpt lat="47.5793" lon="7.3553">
        <ele>462.79</ele>
        <time>2016-08-20T07:57:04.000Z</time>
      </trkpt>
      <trkpt lat="47.57938" lon="7.35521">
        <ele>462.25</ele>
        <time>2016-08-20T07:57:11.000Z</time>
      </trkpt>
      <trkpt lat="47.57944" lon="7.35511">
        <ele>465.35</ele>
        <time>2016-08-20T07:57:15.000Z</time>
      </trkpt>
      <trkpt lat="47.57953" lon="7.35502">
        <ele>452.55</ele>
        <time>2016-08-20T07:57:22.000Z</time>
      </trkpt>
      <trkpt lat="47.57962" lon="7.35493">
        <ele>451.59</ele>
        <time>2016-08-20T07:57:27.000Z</time>
      </trkpt>
      <trkpt lat="47.57966" lon="7.3548">
        <ele>457.37</ele>
        <time>2016-08-20T07:57:32.000Z</time>
      </trkpt>
      <trkpt lat="47.5797" lon="7.35468">
        <ele>455.82</ele>
        <time>2016-08-20T07:57:39.000Z</time>
      </trkpt>
      <trkpt lat="47.57976" lon="7.35457">
        <ele>460.37</ele>
        <time>2016-08-20T07:57:47.000Z</time>
      </trkpt>
      <trkpt lat="47.57982" lon="7.35443">
        <ele>460.94</ele>
        <time>2016-08-20T07:57:56.000Z</time>
      </trkpt>
      <trkpt lat="47.57988" lon="7.35433">
        <ele>462.21</ele>
        <time>2016-08-20T07:58:02.000Z</time>
      </trkpt>
      <trkpt lat="47.57995" lon="7.35421">
        <ele>460.84</ele>
        <time>2016-08-20T07:58:07.000Z</time>
      </trkpt>
      <trkpt lat="47.57999" lon="7.3541">
        <ele>463.04</ele>
        <time>2016-08-20T07:58:14.000Z</time>
      </trkpt>
      <trkpt lat="47.58005" lon="7.35396">
        <ele>463.42</ele>
        <time>2016-08-20T07:58:23.000Z</time>
      </trkpt>
      <trkpt lat="47.58011" lon="7.35385">
        <ele>462.51</ele>
        <time>2016-08-20T07:58:29.000Z</time>
      </trkpt>
      <trkpt lat="47.58018" lon="7.35374">
        <ele>463.03</ele>
        <time>2016-08-20T07:58:37.000Z</time>
      </trkpt>
      <trkpt lat="47.58026" lon="7.35365">
        <ele>459.29</ele>
        <time>2016-08-20T07:58:43.000Z</time>
      </trkpt>
      <trkpt lat="47.58032" lon="7.35355">
        <ele>458</ele>
        <time>2016-08-20T07:58:52.000Z</time>
      </trkpt>
      <trkpt lat="47.58041" lon="7.35346">
        <ele>447.58</ele>
        <time>2016-08-20T07:58:56.000Z</time>
      </trkpt>
      <trkpt lat="47.58046" lon="7.35333">
        <ele>449.87</ele>
        <time>2016-08-20T07:59:03.000Z</time>
      </trkpt>
      <trkpt lat="47.58051" lon="7.3532">
        <ele>454.8</ele>
        <time>2016-08-20T07:59:08.000Z</time>
      </trkpt>
      <trkpt lat="47.58059" lon="7.3531">
        <ele>456.69</ele>
        <time>2016-08-20T07:59:16.000Z</time>
      </trkpt>
      <trkpt lat="47.58067" lon="7.35304">
        <ele>465.99</ele>
        <time>2016-08-20T07:59:26.000Z</time>
      </trkpt>
      <trkpt lat="47.58078" lon="7.35305">
        <ele>474.95</ele>
        <time>2016-08-20T07:59:35.000Z</time>
      </trkpt>
      <trkpt lat="47.58088" lon="7.35304">
        <ele>473.02</ele>
        <time>2016-08-20T07:59:41.000Z</time>
      </trkpt>
      <trkpt lat="47.58098" lon="7.353">
        <ele>466.71</ele>
        <time>2016-08-20T07:59:48.000Z</time>
      </trkpt>
      <trkpt lat="47.58108" lon="7.35295">
        <ele>461.9</ele>
        <time>2016-08-20T07:59:55.000Z</time>
      </trkpt>
      <trkpt lat="47.58117" lon="7.35291">
        <ele>461.59</ele>
        <time>2016-08-20T08:00:02.000Z</time>
      </trkpt>
      <trkpt lat="47.58128" lon="7.35289">
        <ele>456.93</ele>
        <time>2016-08-20T08:00:08.000Z</time>
      </trkpt>
      <trkpt lat="47.58137" lon="7.35287">
        <ele>457.65</ele>
        <time>2016-08-20T08:00:12.000Z</time>
      </trkpt>
      <trkpt lat="47.58144" lon="7.3528">
        <ele>454.87</ele>
        <time>2016-08-20T08:00:17.000Z</time>
      </trkpt>
      <trkpt lat="47.58154" lon="7.35277">
        <ele>453.46</ele>
        <time>2016-08-20T08:00:22.000Z</time>
      </trkpt>
      <trkpt lat="47.58165" lon="7.35274">
        <ele>454.77</ele>
        <time>2016-08-20T08:00:28.000Z</time>
      </trkpt>
      <trkpt lat="47.58174" lon="7.3527">
        <ele>456.66</ele>
        <time>2016-08-20T08:00:35.000Z</time>
      </trkpt>
      <trkpt lat="47.58182" lon="7.35261">
        <ele>450.35</ele>
        <time>2016-08-20T08:00:41.000Z</time>
      </trkpt>
      <trkpt lat="47.58191" lon="7.35258">
        <ele>448.63</ele>
        <time>2016-08-20T08:00:47.000Z</time>
      </trkpt>
      <trkpt lat="47.58201" lon="7.35254">
        <ele>447.86</ele>
        <time>2016-08-20T08:00:53.000Z</time>
      </trkpt>
      <trkpt lat="47.58212" lon="7.35253">
        <ele>450.75</ele>
        <time>2016-08-20T08:00:59.000Z</time>
      </trkpt>
      <trkpt lat="47.58221" lon="7.35253">
        <ele>453.37</ele>
        <time>2016-08-20T08:01:08.000Z</time>
      </trkpt>
      <trkpt lat="47.5823" lon="7.35249">
        <ele>452.62</ele>
        <time>2016-08-20T08:01:13.000Z</time>
      </trkpt>
      <trkpt lat="47.58238" lon="7.3524">
        <ele>448.15</ele>
        <time>2016-08-20T08:01:18.000Z</time>
      </trkpt>
      <trkpt lat="47.58247" lon="7.35236">
        <ele>446.55</ele>
        <time>2016-08-20T08:01:24.000Z</time>
      </trkpt>
      <trkpt lat="47.58256" lon="7.35232">
        <ele>449.48</ele>
        <time>2016-08-20T08:01:32.000Z</time>
      </trkpt>
      <trkpt lat="47.58265" lon="7.35228">
        <ele>449.56</ele>
        <time>2016-08-20T08:01:38.000Z</time>
      </trkpt>
      <trkpt lat="47.58275" lon="7.35223">
        <ele>450.65</ele>
        <time>2016-08-20T08:01:44.000Z</time>
      </trkpt>
      <trkpt lat="47.58283" lon="7.35214">
        <ele>446.29</ele>
        <time>2016-08-20T08:01:50.000Z</time>
      </trkpt>
      <trkpt lat="47.58291" lon="7.35209">
        <ele>446.79</ele>
        <time>2016-08-20T08:02:00.000Z</time>
      </trkpt>
      <trkpt lat="47.583" lon="7.35208">
        <ele>446</ele>
        <time>2016-08-20T08:02:09.000Z</time>
      </trkpt>
      <trkpt lat="47.58312" lon="7.35209">
        <ele>451.55</ele>
        <time>2016-08-20T08:02:15.000Z</time>
      </trkpt>
      <trkpt lat="47.58323" lon="7.35209">
        <ele>449.57</ele>
        <time>2016-08-20T08:02:22.000Z</time>
      </trkpt>
      <trkpt lat="47.58331" lon="7.352">
        <ele>451.27</ele>
        <time>2016-08-20T08:02:28.000Z</time>
      </trkpt>
      <trkpt lat="47.5834" lon="7.35202">
        <ele>447.98</ele>
        <time>2016-08-20T08:02:40.000Z</time>
      </trkpt>
      <trkpt lat="47.58351" lon="7.35202">
        <ele>452.57</ele>
        <time>2016-08-20T08:02:48.000Z</time>
      </trkpt>
      <trkpt lat="47.5836" lon="7.35203">
        <ele>453.91</ele>
        <time>2016-08-20T08:02:53.000Z</time>
      </trkpt>
      <trkpt lat="47.5837" lon="7.35203">
        <ele>457.29</ele>
        <time>2016-08-20T08:02:59.000Z</time>
      </trkpt>
      <trkpt lat="47.5838" lon="7.35207">
        <ele>454.59</ele>
        <time>2016-08-20T08:03:09.000Z</time>
      </trkpt>
      <trkpt lat="47.58391" lon="7.35204">
        <ele>458.74</ele>
        <time>2016-08-20T08:03:13.000Z</time>
      </trkpt>
      <trkpt lat="47.58401" lon="7.35199">
        <ele>452.54</ele>
        <time>2016-08-20T08:03:19.000Z</time>
      </trkpt>
      <trkpt lat="47.5841" lon="7.35201">
        <ele>454.9</ele>
        <time>2016-08-20T08:03:27.000Z</time>
      </trkpt>
      <trkpt lat="47.58419" lon="7.35198">
        <ele>459.25</ele>
        <time>2016-08-20T08:03:33.000Z</time>
      </trkpt>
      <trkpt lat="47.5843" lon="7.352">
        <ele>455.99</ele>
        <time>2016-08-20T08:03:43.000Z</time>
      </trkpt>
      <trkpt lat="47.58442" lon="7.35197">
        <ele>455.23</ele>
        <time>2016-08-20T08:03:50.000Z</time>
      </trkpt>
      <trkpt lat="47.58453" lon="7.35193">
        <ele>451.92</ele>
        <time>2016-08-20T08:03:55.000Z</time>
      </trkpt>
      <trkpt lat="47.58464" lon="7.35196">
        <ele>449.57</ele>
        <time>2016-08-20T08:03:59.000Z</time>
      </trkpt>
      <trkpt lat="47.58473" lon="7.35192">
        <ele>446.45</ele>
        <time>2016-08-20T08:04:07.000Z</time>
      </trkpt>
      <trkpt lat="47.58484" lon="7.3519">
        <ele>437.37</ele>
        <time>2016-08-20T08:04:14.000Z</time>
      </trkpt>
      <trkpt lat="47.58493" lon="7.35189">
        <ele>434.99</ele>
        <time>2016-08-20T08:04:22.000Z</time>
      </trkpt>
      <trkpt lat="47.58503" lon="7.35189">
        <ele>436.61</ele>
        <time>2016-08-20T08:04:30.000Z</time>
      </trkpt>
      <trkpt lat="47.58512" lon="7.35188">
        <ele>442.29</ele>
        <time>2016-08-20T08:04:36.000Z</time>
      </trkpt>
      <trkpt lat="47.58521" lon="7.35188">
        <ele>439.07</ele>
        <time>2016-08-20T08:04:43.000Z</time>
      </trkpt>
      <trkpt lat="47.58531" lon="7.35187">
        <ele>443.25</ele>
        <time>2016-08-20T08:04:51.000Z</time>
      </trkpt>
      <trkpt lat="47.5854" lon="7.35185">
        <ele>441.63</ele>
        <time>2016-08-20T08:04:59.000Z</time>
      </trkpt>
      <trkpt lat="47.5855" lon="7.35188">
        <ele>441.52</ele>
        <time>2016-08-20T08:05:03.000Z</time>
      </trkpt>
      <trkpt lat="47.5856" lon="7.35185">
        <ele>438.58</ele>
        <time>2016-08-20T08:05:10.000Z</time>
      </trkpt>
      <trkpt lat="47.58573" lon="7.35183">
        <ele>436.8</ele>
        <time>2016-08-20T08:05:18.000Z</time>
      </trkpt>
      <trkpt lat="47.58581" lon="7.35177">
        <ele>434.53</ele>
        <time>2016-08-20T08:05:24.000Z</time>
      </trkpt>
      <trkpt lat="47.58589" lon="7.35185">
        <ele>431.22</ele>
        <time>2016-08-20T08:05:30.000Z</time>
      </trkpt>
      <trkpt lat="47.58598" lon="7.35187">
        <ele>431.63</ele>
        <time>2016-08-20T08:05:34.000Z</time>
      </trkpt>
      <trkpt lat="47.58607" lon="7.35187">
        <ele>432.74</ele>
        <time>2016-08-20T08:05:43.000Z</time>
      </trkpt>
      <trkpt lat="47.58617" lon="7.35185">
        <ele>430.74</ele>
        <time>2016-08-20T08:05:47.000Z</time>
      </trkpt>
      <trkpt lat="47.58629" lon="7.35184">
        <ele>427.48</ele>
        <time>2016-08-20T08:05:57.000Z</time>
      </trkpt>
      <trkpt lat="47.58639" lon="7.35183">
        <ele>426.99</ele>
        <time>2016-08-20T08:06:01.000Z</time>
      </trkpt>
      <trkpt lat="47.5865" lon="7.35182">
        <ele>424.41</ele>
        <time>2016-08-20T08:06:07.000Z</time>
      </trkpt>
      <trkpt lat="47.58662" lon="7.35181">
        <ele>425.24</ele>
        <time>2016-08-20T08:06:14.000Z</time>
      </trkpt>
      <trkpt lat="47.58672" lon="7.35178">
        <ele>425.85</ele>
        <time>2016-08-20T08:06:18.000Z</time>
      </trkpt>
      <trkpt lat="47.58681" lon="7.35174">
        <ele>422.21</ele>
        <time>2016-08-20T08:06:24.000Z</time>
      </trkpt>
      <trkpt lat="47.58691" lon="7.3517">
        <ele>425.57</ele>
        <time>2016-08-20T08:06:33.000Z</time>
      </trkpt>
      <trkpt lat="47.587" lon="7.35167">
        <ele>427.89</ele>
        <time>2016-08-20T08:06:38.000Z</time>
      </trkpt>
      <trkpt lat="47.58709" lon="7.35161">
        <ele>420.75</ele>
        <time>2016-08-20T08:06:46.000Z</time>
      </trkpt>
      <trkpt lat="47.58716" lon="7.35154">
        <ele>417.48</ele>
        <time>2016-08-20T08:06:52.000Z</time>
      </trkpt>
      <trkpt lat="47.58725" lon="7.35148">
        <ele>417.43</ele>
        <time>2016-08-20T08:06:57.000Z</time>
      </trkpt>
      <trkpt lat="47.58735" lon="7.35143">
        <ele>424.86</ele>
        <time>2016-08-20T08:07:02.000Z</time>
      </trkpt>
      <trkpt lat="47.58744" lon="7.35136">
        <ele>427.4</ele>
        <time>2016-08-20T08:07:08.000Z</time>
      </trkpt>
      <trkpt lat="47.58752" lon="7.3513">
        <ele>417.58</ele>
        <time>2016-08-20T08:07:17.000Z</time>
      </trkpt>
      <trkpt lat="47.58761" lon="7.35123">
        <ele>418.88</ele>
        <time>2016-08-20T08:07:23.000Z</time>
      </trkpt>
      <trkpt lat="47.5877" lon="7.35121">
        <ele>412.25</ele>
        <time>2016-08-20T08:07:31.000Z</time>
      </trkpt>
      <trkpt lat="47.58779" lon="7.35125">
        <ele>414.15</ele>
        <time>2016-08-20T08:07:38.000Z</time>
      </trkpt>
      <trkpt lat="47.58788" lon="7.35131">
        <ele>414.9</ele>
        <time>2016-08-20T08:07:47.000Z</time>
      </trkpt>
      <trkpt lat="47.58797" lon="7.35137">
        <ele>414.88</ele>
        <time>2016-08-20T08:07:53.000Z</time>
      </trkpt>
      <trkpt lat="47.58806" lon="7.3514">
        <ele>416.82</ele>
        <time>2016-08-20T08:07:58.000Z</time>
      </trkpt>
      <trkpt lat="47.58816" lon="7.35147">
        <ele>415.45</ele>
        <time>2016-08-20T08:08:05.000Z</time>
      </trkpt>
      <trkpt lat="47.58825" lon="7.35149">
        <ele>416.22</ele>
        <time>2016-08-20T08:08:11.000Z</time>
      </trkpt>
      <trkpt lat="47.58835" lon="7.3515">
        <ele>416.33</ele>
        <time>2016-08-20T08:08:17.000Z</time>
      </trkpt>
      <trkpt lat="47.58845" lon="7.35148">
        <ele>416.6</ele>
        <time>2016-08-20T08:08:21.000Z</time>
      </trkpt>
      <trkpt lat="47.58854" lon="7.35142">
        <ele>419.86</ele>
        <time>2016-08-20T08:08:29.000Z</time>
      </trkpt>
      <trkpt lat="47.58861" lon="7.35134">
        <ele>421.06</ele>
        <time>2016-08-20T08:08:36.000Z</time>
      </trkpt>
      <trkpt lat="47.5887" lon="7.35125">
        <ele>422.39</ele>
        <time>2016-08-20T08:08:42.000Z</time>
      </trkpt>
      <trkpt lat="47.58879" lon="7.35118">
        <ele>416.57</ele>
        <time>2016-08-20T08:08:46.000Z</time>
      </trkpt>
      <trkpt lat="47.58885" lon="7.35108">
        <ele>424.57</ele>
        <time>2016-08-20T08:08:53.000Z</time>
      </trkpt>
      <trkpt lat="47.58893" lon="7.351">
        <ele>412.71</ele>
        <time>2016-08-20T08:09:05.000Z</time>
      </trkpt>
      <trkpt lat="47.58904" lon="7.35099">
        <ele>411.84</ele>
        <time>2016-08-20T08:09:11.000Z</time>
      </trkpt>
      <trkpt lat="47.58912" lon="7.35105">
        <ele>408.15</ele>
        <time>2016-08-20T08:09:19.000Z</time>
      </trkpt>
      <trkpt lat="47.58921" lon="7.35112">
        <ele>411.34</ele>
        <time>2016-08-20T08:09:27.000Z</time>
      </trkpt>
      <trkpt lat="47.58926" lon="7.35122">
        <ele>411.42</ele>
        <time>2016-08-20T08:09:33.000Z</time>
      </trkpt>
      <trkpt lat="47.58936" lon="7.35128">
        <ele>411.76</ele>
        <time>2016-08-20T08:09:39.000Z</time>
      </trkpt>
      <trkpt lat="47.58945" lon="7.35134">
        <ele>409.5</ele>
        <time>2016-08-20T08:09:46.000Z</time>
      </trkpt>
      <trkpt lat="47.58953" lon="7.35142">
        <ele>408.46</ele>
        <time>2016-08-20T08:09:51.000Z</time>
      </trkpt>
      <trkpt lat="47.58963" lon="7.35146">
        <ele>405.41</ele>
        <time>2016-08-20T08:09:57.000Z</time>
      </trkpt>
      <trkpt lat="47.58972" lon="7.35154">
        <ele>406.44</ele>
        <time>2016-08-20T08:10:03.000Z</time>
      </trkpt>
      <trkpt lat="47.58981" lon="7.3516">
        <ele>405.64</ele>
        <time>2016-08-20T08:10:08.000Z</time>
      </trkpt>
      <trkpt lat="47.58989" lon="7.35168">
        <ele>410.39</ele>
        <time>2016-08-20T08:10:15.000Z</time>
      </trkpt>
      <trkpt lat="47.58996" lon="7.35178">
        <ele>412.71</ele>
        <time>2016-08-20T08:10:21.000Z</time>
      </trkpt>
      <trkpt lat="47.59004" lon="7.35183">
        <ele>408.39</ele>
        <time>2016-08-20T08:10:27.000Z</time>
      </trkpt>
      <trkpt lat="47.59012" lon="7.35193">
        <ele>406.12</ele>
        <time>2016-08-20T08:10:34.000Z</time>
      </trkpt>
      <trkpt lat="47.59019" lon="7.35202">
        <ele>408.13</ele>
        <time>2016-08-20T08:10:41.000Z</time>
      </trkpt>
      <trkpt lat="47.59028" lon="7.35209">
        <ele>409.82</ele>
        <time>2016-08-20T08:10:49.000Z</time>
      </trkpt>
      <trkpt lat="47.59037" lon="7.35214">
        <ele>412.37</ele>
        <time>2016-08-20T08:10:56.000Z</time>
      </trkpt>
      <trkpt lat="47.59043" lon="7.35224">
        <ele>409.41</ele>
        <time>2016-08-20T08:11:05.000Z</time>
      </trkpt>
      <trkpt lat="47.59035" lon="7.3523">
        <ele>406.04</ele>
        <time>2016-08-20T08:11:14.000Z</time>
      </trkpt>
      <trkpt lat="47.59026" lon="7.35233">
        <ele>404.25</ele>
        <time>2016-08-20T08:11:22.000Z</time>
      </trkpt>
      <trkpt lat="47.59017" lon="7.35234">
        <ele>405.25</ele>
        <time>2016-08-20T08:11:29.000Z</time>
      </trkpt>
      <trkpt lat="47.59012" lon="7.35246">
        <ele>412.82</ele>
        <time>2016-08-20T08:11:39.000Z</time>
      </trkpt>
      <trkpt lat="47.59007" lon="7.3526">
        <ele>418.95</ele>
        <time>2016-08-20T08:11:50.000Z</time>
      </trkpt>
      <trkpt lat="47.59002" lon="7.35272">
        <ele>420.09</ele>
        <time>2016-08-20T08:11:59.000Z</time>
      </trkpt>
      <trkpt lat="47.58995" lon="7.3528">
        <ele>424.87</ele>
        <time>2016-08-20T08:12:03.000Z</time>
      </trkpt>
      <trkpt lat="47.58991" lon="7.35296">
        <ele>423.77</ele>
        <time>2016-08-20T08:12:11.000Z</time>
      </trkpt>
      <trkpt lat="47.5899" lon="7.3531">
        <ele>422.45</ele>
        <time>2016-08-20T08:12:21.000Z</time>
      </trkpt>
      <trkpt lat="47.58989" lon="7.35325">
        <ele>431.11</ele>
        <time>2016-08-20T08:12:33.000Z</time>
      </trkpt>
      <trkpt lat="47.58989" lon="7.3534">
        <ele>429.37</ele>
        <time>2016-08-20T08:12:40.000Z</time>
      </trkpt>
      <trkpt lat="47.58988" lon="7.35355">
        <ele>429.95</ele>
        <time>2016-08-20T08:12:48.000Z</time>
      </trkpt>
      <trkpt lat="47.58988" lon="7.35369">
        <ele>435.99</ele>
        <time>2016-08-20T08:12:59.000Z</time>
      </trkpt>
      <trkpt lat="47.58984" lon="7.35382">
        <ele>434.04</ele>
        <time>2016-08-20T08:13:07.000Z</time>
      </trkpt>
      <trkpt lat="47.58982" lon="7.35395">
        <ele>437.47</ele>
        <time>2016-08-20T08:13:16.000Z</time>
      </trkpt>
      <trkpt lat="47.58975" lon="7.35406">
        <ele>447.76</ele>
        <time>2016-08-20T08:13:24.000Z</time>
      </trkpt>
      <trkpt lat="47.5897" lon="7.35418">
        <ele>444.77</ele>
        <time>2016-08-20T08:13:40.000Z</time>
      </trkpt>
      <trkpt lat="47.58962" lon="7.35424">
        <ele>441.6</ele>
        <time>2016-08-20T08:13:48.000Z</time>
      </trkpt>
      <trkpt lat="47.58953" lon="7.35433">
        <ele>445.96</ele>
        <time>2016-08-20T08:13:58.000Z</time>
      </trkpt>
      <trkpt lat="47.5895" lon="7.35447">
        <ele>444.74</ele>
        <time>2016-08-20T08:14:07.000Z</time>
      </trkpt>
      <trkpt lat="47.58948" lon="7.35461">
        <ele>445.41</ele>
        <time>2016-08-20T08:14:16.000Z</time>
      </trkpt>
      <trkpt lat="47.58944" lon="7.35475">
        <ele>449.1</ele>
        <time>2016-08-20T08:14:26.000Z</time>
      </trkpt>
      <trkpt lat="47.58946" lon="7.35488">
        <ele>457.31</ele>
        <time>2016-08-20T08:14:32.000Z</time>
      </trkpt>
      <trkpt lat="47.58942" lon="7.35501">
        <ele>453.92</ele>
        <time>2016-08-20T08:14:40.000Z</time>
      </trkpt>
      <trkpt lat="47.58935" lon="7.35513">
        <ele>457.11</ele>
        <time>2016-08-20T08:14:48.000Z</time>
      </trkpt>
      <trkpt lat="47.58929" lon="7.35525">
        <ele>456.94</ele>
        <time>2016-08-20T08:14:55.000Z</time>
      </trkpt>
      <trkpt lat="47.58924" lon="7.35541">
        <ele>456.35</ele>
        <time>2016-08-20T08:15:01.000Z</time>
      </trkpt>
      <trkpt lat="47.58926" lon="7.35557">
        <ele>457.19</ele>
        <time>2016-08-20T08:15:08.000Z</time>
      </trkpt>
      <trkpt lat="47.58931" lon="7.3557">
        <ele>450.39</ele>
        <time>2016-08-20T08:15:15.000Z</time>
      </trkpt>
      <trkpt lat="47.58933" lon="7.35583">
        <ele>449.89</ele>
        <time>2016-08-20T08:15:23.000Z</time>
      </trkpt>
      <trkpt lat="47.58934" lon="7.35597">
        <ele>453.08</ele>
        <time>2016-08-20T08:15:36.000Z</time>
      </trkpt>
      <trkpt lat="47.58931" lon="7.35611">
        <ele>455.36</ele>
        <time>2016-08-20T08:15:43.000Z</time>
      </trkpt>
      <trkpt lat="47.58935" lon="7.35623">
        <ele>456.52</ele>
        <time>2016-08-20T08:15:52.000Z</time>
      </trkpt>
      <trkpt lat="47.58941" lon="7.35634">
        <ele>457.15</ele>
        <time>2016-08-20T08:15:58.000Z</time>
      </trkpt>
      <trkpt lat="47.58939" lon="7.35647">
        <ele>461.82</ele>
        <time>2016-08-20T08:16:03.000Z</time>
      </trkpt>
      <trkpt lat="47.58945" lon="7.35659">
        <ele>452.5</ele>
        <time>2016-08-20T08:16:09.000Z</time>
      </trkpt>
      <trkpt lat="47.58952" lon="7.35668">
        <ele>460.19</ele>
        <time>2016-08-20T08:16:17.000Z</time>
      </trkpt>
      <trkpt lat="47.58958" lon="7.35681">
        <ele>453.16</ele>
        <time>2016-08-20T08:16:23.000Z</time>
      </trkpt>
      <trkpt lat="47.58968" lon="7.35688">
        <ele>453.59</ele>
        <time>2016-08-20T08:16:33.000Z</time>
      </trkpt>
      <trkpt lat="47.58979" lon="7.35686">
        <ele>451.22</ele>
        <time>2016-08-20T08:16:41.000Z</time>
      </trkpt>
      <trkpt lat="47.58987" lon="7.35694">
        <ele>453.79</ele>
        <time>2016-08-20T08:16:47.000Z</time>
      </trkpt>
      <trkpt lat="47.58995" lon="7.35703">
        <ele>461.13</ele>
        <time>2016-08-20T08:16:51.000Z</time>
      </trkpt>
      <trkpt lat="47.59002" lon="7.35711">
        <ele>456.58</ele>
        <time>2016-08-20T08:17:02.000Z</time>
      </trkpt>
      <trkpt lat="47.59012" lon="7.35714">
        <ele>454.15</ele>
        <time>2016-08-20T08:17:06.000Z</time>
      </trkpt>
      <trkpt lat="47.59021" lon="7.35721">
        <ele>451.03</ele>
        <time>2016-08-20T08:17:16.000Z</time>
      </trkpt>
      <trkpt lat="47.59028" lon="7.3573">
        <ele>449.07</ele>
        <time>2016-08-20T08:17:23.000Z</time>
      </trkpt>
      <trkpt lat="47.59036" lon="7.35738">
        <ele>446.1</ele>
        <time>2016-08-20T08:17:29.000Z</time>
      </trkpt>
      <trkpt lat="47.59043" lon="7.35747">
        <ele>448.54</ele>
        <time>2016-08-20T08:17:37.000Z</time>
      </trkpt>
      <trkpt lat="47.59045" lon="7.3576">
        <ele>450.31</ele>
        <time>2016-08-20T08:17:44.000Z</time>
      </trkpt>
      <trkpt lat="47.59051" lon="7.35772">
        <ele>449.57</ele>
        <time>2016-08-20T08:17:50.000Z</time>
      </trkpt>
      <trkpt lat="47.5906" lon="7.3578">
        <ele>452.99</ele>
        <time>2016-08-20T08:17:56.000Z</time>
      </trkpt>
      <trkpt lat="47.59066" lon="7.35792">
        <ele>453.92</ele>
        <time>2016-08-20T08:18:03.000Z</time>
      </trkpt>
      <trkpt lat="47.59072" lon="7.35802">
        <ele>456.44</ele>
        <time>2016-08-20T08:18:09.000Z</time>
      </trkpt>
      <trkpt lat="47.59075" lon="7.35816">
        <ele>459.12</ele>
        <time>2016-08-20T08:18:17.000Z</time>
      </trkpt>
      <trkpt lat="47.59078" lon="7.3583">
        <ele>458.57</ele>
        <time>2016-08-20T08:18:25.000Z</time>
      </trkpt>
      <trkpt lat="47.59085" lon="7.35843">
        <ele>451.28</ele>
        <time>2016-08-20T08:18:37.000Z</time>
      </trkpt>
      <trkpt lat="47.5909" lon="7.35855">
        <ele>452.47</ele>
        <time>2016-08-20T08:18:45.000Z</time>
      </trkpt>
      <trkpt lat="47.59095" lon="7.35867">
        <ele>451.78</ele>
        <time>2016-08-20T08:18:52.000Z</time>
      </trkpt>
      <trkpt lat="47.59097" lon="7.35881">
        <ele>454.75</ele>
        <time>2016-08-20T08:18:56.000Z</time>
      </trkpt>
      <trkpt lat="47.59103" lon="7.35892">
        <ele>454.91</ele>
        <time>2016-08-20T08:19:02.000Z</time>
      </trkpt>
      <trkpt lat="47.59108" lon="7.35906">
        <ele>453.75</ele>
        <time>2016-08-20T08:19:12.000Z</time>
      </trkpt>
      <trkpt lat="47.5911" lon="7.35919">
        <ele>453.52</ele>
        <time>2016-08-20T08:19:20.000Z</time>
      </trkpt>
      <trkpt lat="47.5911" lon="7.35934">
        <ele>450.92</ele>
        <time>2016-08-20T08:19:27.000Z</time>
      </trkpt>
      <trkpt lat="47.59118" lon="7.35946">
        <ele>446.02</ele>
        <time>2016-08-20T08:19:35.000Z</time>
      </trkpt>
      <trkpt lat="47.59126" lon="7.35956">
        <ele>448.49</ele>
        <time>2016-08-20T08:19:40.000Z</time>
      </trkpt>
      <trkpt lat="47.59131" lon="7.35968">
        <ele>450.28</ele>
        <time>2016-08-20T08:19:46.000Z</time>
      </trkpt>
      <trkpt lat="47.59135" lon="7.35982">
        <ele>452.7</ele>
        <time>2016-08-20T08:19:52.000Z</time>
      </trkpt>
      <trkpt lat="47.5914" lon="7.35995">
        <ele>452</ele>
        <time>2016-08-20T08:19:58.000Z</time>
      </trkpt>
      <trkpt lat="47.59143" lon="7.36009">
        <ele>451.83</ele>
        <time>2016-08-20T08:20:05.000Z</time>
      </trkpt>
      <trkpt lat="47.59147" lon="7.36023">
        <ele>452.59</ele>
        <time>2016-08-20T08:20:11.000Z</time>
      </trkpt>
      <trkpt lat="47.5915" lon="7.36036">
        <ele>455.9</ele>
        <time>2016-08-20T08:20:18.000Z</time>
      </trkpt>
      <trkpt lat="47.59151" lon="7.36051">
        <ele>457.76</ele>
        <time>2016-08-20T08:20:25.000Z</time>
      </trkpt>
      <trkpt lat="47.59157" lon="7.36061">
        <ele>449.09</ele>
        <time>2016-08-20T08:20:32.000Z</time>
      </trkpt>
      <trkpt lat="47.59161" lon="7.36074">
        <ele>447.96</ele>
        <time>2016-08-20T08:20:39.000Z</time>
      </trkpt>
      <trkpt lat="47.59167" lon="7.36088">
        <ele>447.01</ele>
        <time>2016-08-20T08:20:45.000Z</time>
      </trkpt>
      <trkpt lat="47.59172" lon="7.36101">
        <ele>447.01</ele>
        <time>2016-08-20T08:20:53.000Z</time>
      </trkpt>
      <trkpt lat="47.59176" lon="7.36114">
        <ele>447.93</ele>
        <time>2016-08-20T08:20:59.000Z</time>
      </trkpt>
      <trkpt lat="47.59179" lon="7.36127">
        <ele>445.36</ele>
        <time>2016-08-20T08:21:06.000Z</time>
      </trkpt>
      <trkpt lat="47.59184" lon="7.36139">
        <ele>448.31</ele>
        <time>2016-08-20T08:21:11.000Z</time>
      </trkpt>
      <trkpt lat="47.5919" lon="7.36152">
        <ele>450.99</ele>
        <time>2016-08-20T08:21:18.000Z</time>
      </trkpt>
      <trkpt lat="47.59198" lon="7.36156">
        <ele>450.1</ele>
        <time>2016-08-20T08:21:23.000Z</time>
      </trkpt>
      <trkpt lat="47.59207" lon="7.36161">
        <ele>449</ele>
        <time>2016-08-20T08:21:53.000Z</time>
      </trkpt>
      <trkpt lat="47.59217" lon="7.36163">
        <ele>451.84</ele>
        <time>2016-08-20T08:21:59.000Z</time>
      </trkpt>
      <trkpt lat="47.59226" lon="7.36164">
        <ele>451.78</ele>
        <time>2016-08-20T08:22:09.000Z</time>
      </trkpt>
      <trkpt lat="47.5924" lon="7.36169">
        <ele>450.9</ele>
        <time>2016-08-20T08:22:19.000Z</time>
      </trkpt>
      <trkpt lat="47.59249" lon="7.36171">
        <ele>447.96</ele>
        <time>2016-08-20T08:22:25.000Z</time>
      </trkpt>
      <trkpt lat="47.5926" lon="7.36173">
        <ele>447.56</ele>
        <time>2016-08-20T08:22:32.000Z</time>
      </trkpt>
      <trkpt lat="47.59269" lon="7.36174">
        <ele>447.7</ele>
        <time>2016-08-20T08:22:38.000Z</time>
      </trkpt>
      <trkpt lat="47.59279" lon="7.36176">
        <ele>447.89</ele>
        <time>2016-08-20T08:22:44.000Z</time>
      </trkpt>
      <trkpt lat="47.59289" lon="7.36179">
        <ele>451.68</ele>
        <time>2016-08-20T08:22:53.000Z</time>
      </trkpt>
      <trkpt lat="47.59298" lon="7.36181">
        <ele>452.69</ele>
        <time>2016-08-20T08:23:01.000Z</time>
      </trkpt>
      <trkpt lat="47.59309" lon="7.36185">
        <ele>449.62</ele>
        <time>2016-08-20T08:23:09.000Z</time>
      </trkpt>
      <trkpt lat="47.59319" lon="7.36187">
        <ele>447.5</ele>
        <time>2016-08-20T08:23:14.000Z</time>
      </trkpt>
      <trkpt lat="47.59329" lon="7.36191">
        <ele>440.14</ele>
        <time>2016-08-20T08:23:19.000Z</time>
      </trkpt>
      <trkpt lat="47.59336" lon="7.362">
        <ele>446.18</ele>
        <time>2016-08-20T08:23:23.000Z</time>
      </trkpt>
      <trkpt lat="47.59344" lon="7.36208">
        <ele>452.92</ele>
        <time>2016-08-20T08:23:28.000Z</time>
      </trkpt>
      <trkpt lat="47.59352" lon="7.36219">
        <ele>440.23</ele>
        <time>2016-08-20T08:23:41.000Z</time>
      </trkpt>
      <trkpt lat="47.5936" lon="7.36227">
        <ele>436.05</ele>
        <time>2016-08-20T08:23:49.000Z</time>
      </trkpt>
      <trkpt lat="47.59368" lon="7.36236">
        <ele>437.53</ele>
        <time>2016-08-20T08:23:56.000Z</time>
      </trkpt>
      <trkpt lat="47.59375" lon="7.36246">
        <ele>436.43</ele>
        <time>2016-08-20T08:24:05.000Z</time>
      </trkpt>
      <trkpt lat="47.59382" lon="7.36255">
        <ele>442.41</ele>
        <time>2016-08-20T08:24:16.000Z</time>
      </trkpt>
      <trkpt lat="47.59391" lon="7.36264">
        <ele>440.15</ele>
        <time>2016-08-20T08:24:23.000Z</time>
      </trkpt>
      <trkpt lat="47.59398" lon="7.36275">
        <ele>431.95</ele>
        <time>2016-08-20T08:24:32.000Z</time>
      </trkpt>
      <trkpt lat="47.59406" lon="7.36286">
        <ele>432.34</ele>
        <time>2016-08-20T08:24:40.000Z</time>
      </trkpt>
      <trkpt lat="47.59413" lon="7.36297">
        <ele>435.41</ele>
        <time>2016-08-20T08:24:46.000Z</time>
      </trkpt>
      <trkpt lat="47.59419" lon="7.3631">
        <ele>428.74</ele>
        <time>2016-08-20T08:24:53.000Z</time>
      </trkpt>
      <trkpt lat="47.59423" lon="7.36323">
        <ele>424.7</ele>
        <time>2016-08-20T08:24:59.000Z</time>
      </trkpt>
      <trkpt lat="47.59426" lon="7.36336">
        <ele>426.64</ele>
        <time>2016-08-20T08:25:07.000Z</time>
      </trkpt>
      <trkpt lat="47.59428" lon="7.36349">
        <ele>429.26</ele>
        <time>2016-08-20T08:25:14.000Z</time>
      </trkpt>
      <trkpt lat="47.59429" lon="7.36364">
        <ele>426.21</ele>
        <time>2016-08-20T08:25:20.000Z</time>
      </trkpt>
      <trkpt lat="47.59428" lon="7.36378">
        <ele>433.95</ele>
        <time>2016-08-20T08:25:25.000Z</time>
      </trkpt>
      <trkpt lat="47.59426" lon="7.36392">
        <ele>429.5</ele>
        <time>2016-08-20T08:25:33.000Z</time>
      </trkpt>
      <trkpt lat="47.59423" lon="7.36407">
        <ele>425.4</ele>
        <time>2016-08-20T08:25:39.000Z</time>
      </trkpt>
      <trkpt lat="47.59421" lon="7.36421">
        <ele>426.76</ele>
        <time>2016-08-20T08:25:45.000Z</time>
      </trkpt>
      <trkpt lat="47.59418" lon="7.36435">
        <ele>425.26</ele>
        <time>2016-08-20T08:25:53.000Z</time>
      </trkpt>
      <trkpt lat="47.5942" lon="7.36449">
        <ele>420.91</ele>
        <time>2016-08-20T08:26:00.000Z</time>
      </trkpt>
      <trkpt lat="47.59428" lon="7.36459">
        <ele>420.76</ele>
        <time>2016-08-20T08:26:08.000Z</time>
      </trkpt>
      <trkpt lat="47.59438" lon="7.36464">
        <ele>419.7</ele>
        <time>2016-08-20T08:26:13.000Z</time>
      </trkpt>
      <trkpt lat="47.59447" lon="7.3647">
        <ele>418.68</ele>
        <time>2016-08-20T08:26:18.000Z</time>
      </trkpt>
      <trkpt lat="47.59456" lon="7.36477">
        <ele>422.2</ele>
        <time>2016-08-20T08:26:25.000Z</time>
      </trkpt>
      <trkpt lat="47.59465" lon="7.36484">
        <ele>423.89</ele>
        <time>2016-08-20T08:26:31.000Z</time>
      </trkpt>
      <trkpt lat="47.59474" lon="7.3649">
        <ele>420.58</ele>
        <time>2016-08-20T08:26:36.000Z</time>
      </trkpt>
      <trkpt lat="47.59483" lon="7.36496">
        <ele>417.56</ele>
        <time>2016-08-20T08:26:43.000Z</time>
      </trkpt>
      <trkpt lat="47.59492" lon="7.36502">
        <ele>419.05</ele>
        <time>2016-08-20T08:26:49.000Z</time>
      </trkpt>
      <trkpt lat="47.59503" lon="7.36504">
        <ele>420.58</ele>
        <time>2016-08-20T08:26:55.000Z</time>
      </trkpt>
      <trkpt lat="47.59512" lon="7.36511">
        <ele>419.69</ele>
        <time>2016-08-20T08:27:03.000Z</time>
      </trkpt>
      <trkpt lat="47.5952" lon="7.36517">
        <ele>418.07</ele>
        <time>2016-08-20T08:27:09.000Z</time>
      </trkpt>
      <trkpt lat="47.59531" lon="7.3652">
        <ele>415.62</ele>
        <time>2016-08-20T08:27:15.000Z</time>
      </trkpt>
      <trkpt lat="47.59539" lon="7.36525">
        <ele>413.54</ele>
        <time>2016-08-20T08:27:21.000Z</time>
      </trkpt>
      <trkpt lat="47.59549" lon="7.3653">
        <ele>415.12</ele>
        <time>2016-08-20T08:27:27.000Z</time>
      </trkpt>
      <trkpt lat="47.59558" lon="7.36531">
        <ele>416.2</ele>
        <time>2016-08-20T08:27:33.000Z</time>
      </trkpt>
      <trkpt lat="47.59569" lon="7.3653">
        <ele>416.16</ele>
        <time>2016-08-20T08:27:40.000Z</time>
      </trkpt>
      <trkpt lat="47.59577" lon="7.36536">
        <ele>417.33</ele>
        <time>2016-08-20T08:27:45.000Z</time>
      </trkpt>
      <trkpt lat="47.59588" lon="7.36538">
        <ele>419.65</ele>
        <time>2016-08-20T08:27:50.000Z</time>
      </trkpt>
      <trkpt lat="47.59597" lon="7.36537">
        <ele>423.18</ele>
        <time>2016-08-20T08:27:56.000Z</time>
      </trkpt>
      <trkpt lat="47.59607" lon="7.36531">
        <ele>420.59</ele>
        <time>2016-08-20T08:28:03.000Z</time>
      </trkpt>
      <trkpt lat="47.59616" lon="7.36526">
        <ele>417.55</ele>
        <time>2016-08-20T08:28:10.000Z</time>
      </trkpt>
      <trkpt lat="47.59626" lon="7.36522">
        <ele>417.53</ele>
        <time>2016-08-20T08:28:15.000Z</time>
      </trkpt>
      <trkpt lat="47.59636" lon="7.36517">
        <ele>414.23</ele>
        <time>2016-08-20T08:28:22.000Z</time>
      </trkpt>
      <trkpt lat="47.59646" lon="7.36514">
        <ele>412.73</ele>
        <time>2016-08-20T08:28:28.000Z</time>
      </trkpt>
      <trkpt lat="47.59655" lon="7.36514">
        <ele>414.16</ele>
        <time>2016-08-20T08:28:34.000Z</time>
      </trkpt>
      <trkpt lat="47.59665" lon="7.36516">
        <ele>411.12</ele>
        <time>2016-08-20T08:28:40.000Z</time>
      </trkpt>
      <trkpt lat="47.59674" lon="7.3652">
        <ele>410.75</ele>
        <time>2016-08-20T08:28:45.000Z</time>
      </trkpt>
      <trkpt lat="47.59683" lon="7.36524">
        <ele>413.04</ele>
        <time>2016-08-20T08:28:52.000Z</time>
      </trkpt>
      <trkpt lat="47.59692" lon="7.3653">
        <ele>414.66</ele>
        <time>2016-08-20T08:28:59.000Z</time>
      </trkpt>
      <trkpt lat="47.59702" lon="7.36534">
        <ele>411.81</ele>
        <time>2016-08-20T08:29:07.000Z</time>
      </trkpt>
      <trkpt lat="47.59711" lon="7.36539">
        <ele>409.66</ele>
        <time>2016-08-20T08:29:14.000Z</time>
      </trkpt>
      <trkpt lat="47.59721" lon="7.36542">
        <ele>407.77</ele>
        <time>2016-08-20T08:29:19.000Z</time>
      </trkpt>
      <trkpt lat="47.59731" lon="7.36546">
        <ele>407.09</ele>
        <time>2016-08-20T08:29:26.000Z</time>
      </trkpt>
      <trkpt lat="47.59739" lon="7.36551">
        <ele>407.62</ele>
        <time>2016-08-20T08:29:32.000Z</time>
      </trkpt>
      <trkpt lat="47.59747" lon="7.36558">
        <ele>410.12</ele>
        <time>2016-08-20T08:29:37.000Z</time>
      </trkpt>
      <trkpt lat="47.59756" lon="7.36562">
        <ele>409.29</ele>
        <time>2016-08-20T08:29:42.000Z</time>
      </trkpt>
      <trkpt lat="47.59766" lon="7.36564">
        <ele>408.99</ele>
        <time>2016-08-20T08:29:49.000Z</time>
      </trkpt>
      <trkpt lat="47.59776" lon="7.36565">
        <ele>404.65</ele>
        <time>2016-08-20T08:29:56.000Z</time>
      </trkpt>
      <trkpt lat="47.59786" lon="7.36567">
        <ele>402.78</ele>
        <time>2016-08-20T08:30:04.000Z</time>
      </trkpt>
      <trkpt lat="47.59795" lon="7.36573">
        <ele>407.44</ele>
        <time>2016-08-20T08:30:09.000Z</time>
      </trkpt>
      <trkpt lat="47.59805" lon="7.36578">
        <ele>403.59</ele>
        <time>2016-08-20T08:30:16.000Z</time>
      </trkpt>
      <trkpt lat="47.59814" lon="7.3658">
        <ele>401.37</ele>
        <time>2016-08-20T08:30:22.000Z</time>
      </trkpt>
      <trkpt lat="47.59824" lon="7.36583">
        <ele>399.71</ele>
        <time>2016-08-20T08:30:29.000Z</time>
      </trkpt>
      <trkpt lat="47.59831" lon="7.36593">
        <ele>402.27</ele>
        <time>2016-08-20T08:30:36.000Z</time>
      </trkpt>
      <trkpt lat="47.59828" lon="7.36607">
        <ele>402.94</ele>
        <time>2016-08-20T08:30:42.000Z</time>
      </trkpt>
      <trkpt lat="47.59824" lon="7.3662">
        <ele>401.37</ele>
        <time>2016-08-20T08:30:48.000Z</time>
      </trkpt>
      <trkpt lat="47.59818" lon="7.3663">
        <ele>400.36</ele>
        <time>2016-08-20T08:30:54.000Z</time>
      </trkpt>
      <trkpt lat="47.59813" lon="7.36643">
        <ele>400.08</ele>
        <time>2016-08-20T08:31:00.000Z</time>
      </trkpt>
      <trkpt lat="47.59808" lon="7.36654">
        <ele>396.78</ele>
        <time>2016-08-20T08:31:07.000Z</time>
      </trkpt>
      <trkpt lat="47.598" lon="7.36665">
        <ele>403.29</ele>
        <time>2016-08-20T08:31:14.000Z</time>
      </trkpt>
      <trkpt lat="47.59795" lon="7.36678">
        <ele>402.92</ele>
        <time>2016-08-20T08:31:20.000Z</time>
      </trkpt>
      <trkpt lat="47.5979" lon="7.3669">
        <ele>402.49</ele>
        <time>2016-08-20T08:31:25.000Z</time>
      </trkpt>
      <trkpt lat="47.59786" lon="7.36702">
        <ele>403.19</ele>
        <time>2016-08-20T08:31:31.000Z</time>
      </trkpt>
      <trkpt lat="47.5978" lon="7.36713">
        <ele>406.35</ele>
        <time>2016-08-20T08:31:36.000Z</time>
      </trkpt>
      <trkpt lat="47.59774" lon="7.36724">
        <ele>406.37</ele>
        <time>2016-08-20T08:31:41.000Z</time>
      </trkpt>
      <trkpt lat="47.59769" lon="7.36736">
        <ele>401.6</ele>
        <time>2016-08-20T08:31:50.000Z</time>
      </trkpt>
      <trkpt lat="47.59764" lon="7.36747">
        <ele>401.33</ele>
        <time>2016-08-20T08:31:57.000Z</time>
      </trkpt>
      <trkpt lat="47.59758" lon="7.36758">
        <ele>406.08</ele>
        <time>2016-08-20T08:32:02.000Z</time>
      </trkpt>
      <trkpt lat="47.5975" lon="7.36767">
        <ele>403.75</ele>
        <time>2016-08-20T08:32:09.000Z</time>
      </trkpt>
      <trkpt lat="47.5974" lon="7.36774">
        <ele>396.37</ele>
        <time>2016-08-20T08:32:16.000Z</time>
      </trkpt>
      <trkpt lat="47.59732" lon="7.36781">
        <ele>396.07</ele>
        <time>2016-08-20T08:32:23.000Z</time>
      </trkpt>
      <trkpt lat="47.59724" lon="7.36784">
        <ele>396.33</ele>
        <time>2016-08-20T08:32:28.000Z</time>
      </trkpt>
      <trkpt lat="47.59716" lon="7.36791">
        <ele>397.37</ele>
        <time>2016-08-20T08:32:35.000Z</time>
      </trkpt>
      <trkpt lat="47.59708" lon="7.36797">
        <ele>396.69</ele>
        <time>2016-08-20T08:32:39.000Z</time>
      </trkpt>
      <trkpt lat="47.59699" lon="7.36804">
        <ele>397.32</ele>
        <time>2016-08-20T08:32:46.000Z</time>
      </trkpt>
      <trkpt lat="47.59689" lon="7.3681">
        <ele>401.16</ele>
        <time>2016-08-20T08:32:51.000Z</time>
      </trkpt>
      <trkpt lat="47.5968" lon="7.36822">
        <ele>406.85</ele>
        <time>2016-08-20T08:33:00.000Z</time>
      </trkpt>
      <trkpt lat="47.5967" lon="7.36822">
        <ele>401.08</ele>
        <time>2016-08-20T08:33:04.000Z</time>
      </trkpt>
      <trkpt lat="47.59662" lon="7.36831">
        <ele>398.99</ele>
        <time>2016-08-20T08:33:15.000Z</time>
      </trkpt>
      <trkpt lat="47.59654" lon="7.36837">
        <ele>400.35</ele>
        <time>2016-08-20T08:33:20.000Z</time>
      </trkpt>
      <trkpt lat="47.59644" lon="7.36837">
        <ele>399.89</ele>
        <time>2016-08-20T08:33:25.000Z</time>
      </trkpt>
      <trkpt lat="47.59634" lon="7.36839">
        <ele>396.27</ele>
        <time>2016-08-20T08:33:29.000Z</time>
      </trkpt>
      <trkpt lat="47.59626" lon="7.36847">
        <ele>396.14</ele>
        <time>2016-08-20T08:33:37.000Z</time>
      </trkpt>
      <trkpt lat="47.59617" lon="7.36853">
        <ele>399.05</ele>
        <time>2016-08-20T08:33:43.000Z</time>
      </trkpt>
      <trkpt lat="47.5961" lon="7.36864">
        <ele>400.87</ele>
        <time>2016-08-20T08:33:49.000Z</time>
      </trkpt>
      <trkpt lat="47.59602" lon="7.36873">
        <ele>401.94</ele>
        <time>2016-08-20T08:33:56.000Z</time>
      </trkpt>
      <trkpt lat="47.59594" lon="7.36882">
        <ele>399.17</ele>
        <time>2016-08-20T08:34:00.000Z</time>
      </trkpt>
      <trkpt lat="47.59589" lon="7.36893">
        <ele>393.53</ele>
        <time>2016-08-20T08:34:10.000Z</time>
      </trkpt>
      <trkpt lat="47.59585" lon="7.36908">
        <ele>396.49</ele>
        <time>2016-08-20T08:34:17.000Z</time>
      </trkpt>
      <trkpt lat="47.59574" lon="7.36914">
        <ele>396.93</ele>
        <time>2016-08-20T08:34:20.000Z</time>
      </trkpt>
      <trkpt lat="47.59568" lon="7.36924">
        <ele>402.04</ele>
        <time>2016-08-20T08:34:25.000Z</time>
      </trkpt>
      <trkpt lat="47.59562" lon="7.36934">
        <ele>399.94</ele>
        <time>2016-08-20T08:34:32.000Z</time>
      </trkpt>
      <trkpt lat="47.5956" lon="7.36948">
        <ele>401.56</ele>
        <time>2016-08-20T08:34:39.000Z</time>
      </trkpt>
      <trkpt lat="47.59557" lon="7.3696">
        <ele>401.54</ele>
        <time>2016-08-20T08:34:46.000Z</time>
      </trkpt>
      <trkpt lat="47.59551" lon="7.36973">
        <ele>407.07</ele>
        <time>2016-08-20T08:34:52.000Z</time>
      </trkpt>
      <trkpt lat="47.59545" lon="7.36985">
        <ele>411.08</ele>
        <time>2016-08-20T08:34:58.000Z</time>
      </trkpt>
      <trkpt lat="47.59539" lon="7.36996">
        <ele>407.76</ele>
        <time>2016-08-20T08:35:05.000Z</time>
      </trkpt>
      <trkpt lat="47.59535" lon="7.37008">
        <ele>403.51</ele>
        <time>2016-08-20T08:35:13.000Z</time>
      </trkpt>
      <trkpt lat="47.5953" lon="7.3702">
        <ele>405.93</ele>
        <time>2016-08-20T08:35:20.000Z</time>
      </trkpt>
      <trkpt lat="47.59525" lon="7.37031">
        <ele>399.74</ele>
        <time>2016-08-20T08:35:26.000Z</time>
      </trkpt>
      <trkpt lat="47.59517" lon="7.37038">
        <ele>401.94</ele>
        <time>2016-08-20T08:35:30.000Z</time>
      </trkpt>
      <trkpt lat="47.5951" lon="7.37048">
        <ele>406.25</ele>
        <time>2016-08-20T08:35:38.000Z</time>
      </trkpt>
      <trkpt lat="47.59504" lon="7.3706">
        <ele>406.03</ele>
        <time>2016-08-20T08:35:44.000Z</time>
      </trkpt>
      <trkpt lat="47.59499" lon="7.3707">
        <ele>405.16</ele>
        <time>2016-08-20T08:35:50.000Z</time>
      </trkpt>
      <trkpt lat="47.59491" lon="7.3708">
        <ele>407.99</ele>
        <time>2016-08-20T08:35:56.000Z</time>
      </trkpt>
      <trkpt lat="47.59484" lon="7.3709">
        <ele>408.47</ele>
        <time>2016-08-20T08:36:01.000Z</time>
      </trkpt>
      <trkpt lat="47.59478" lon="7.37101">
        <ele>408.72</ele>
        <time>2016-08-20T08:36:06.000Z</time>
      </trkpt>
      <trkpt lat="47.59468" lon="7.37109">
        <ele>410.4</ele>
        <time>2016-08-20T08:36:15.000Z</time>
      </trkpt>
      <trkpt lat="47.59459" lon="7.37116">
        <ele>408.88</ele>
        <time>2016-08-20T08:36:20.000Z</time>
      </trkpt>
      <trkpt lat="47.59451" lon="7.37124">
        <ele>415.07</ele>
        <time>2016-08-20T08:36:28.000Z</time>
      </trkpt>
      <trkpt lat="47.59442" lon="7.37132">
        <ele>413.12</ele>
        <time>2016-08-20T08:36:35.000Z</time>
      </trkpt>
      <trkpt lat="47.59433" lon="7.3714">
        <ele>415.42</ele>
        <time>2016-08-20T08:36:41.000Z</time>
      </trkpt>
      <trkpt lat="47.59423" lon="7.37145">
        <ele>413.7</ele>
        <time>2016-08-20T08:36:48.000Z</time>
      </trkpt>
      <trkpt lat="47.59413" lon="7.37151">
        <ele>413.22</ele>
        <time>2016-08-20T08:36:57.000Z</time>
      </trkpt>
      <trkpt lat="47.59404" lon="7.37158">
        <ele>412.53</ele>
        <time>2016-08-20T08:37:06.000Z</time>
      </trkpt>
      <trkpt lat="47.59395" lon="7.37164">
        <ele>410.39</ele>
        <time>2016-08-20T08:37:13.000Z</time>
      </trkpt>
      <trkpt lat="47.59386" lon="7.37168">
        <ele>412.4</ele>
        <time>2016-08-20T08:37:20.000Z</time>
      </trkpt>
      <trkpt lat="47.59376" lon="7.37172">
        <ele>410.71</ele>
        <time>2016-08-20T08:37:27.000Z</time>
      </trkpt>
      <trkpt lat="47.59367" lon="7.37177">
        <ele>409.33</ele>
        <time>2016-08-20T08:37:34.000Z</time>
      </trkpt>
      <trkpt lat="47.59359" lon="7.37186">
        <ele>409.4</ele>
        <time>2016-08-20T08:37:41.000Z</time>
      </trkpt>
      <trkpt lat="47.59349" lon="7.37191">
        <ele>410.02</ele>
        <time>2016-08-20T08:37:48.000Z</time>
      </trkpt>
      <trkpt lat="47.59342" lon="7.37201">
        <ele>411.81</ele>
        <time>2016-08-20T08:37:55.000Z</time>
      </trkpt>
      <trkpt lat="47.59333" lon="7.37197">
        <ele>408.56</ele>
        <time>2016-08-20T08:37:59.000Z</time>
      </trkpt>
      <trkpt lat="47.59325" lon="7.37189">
        <ele>410.67</ele>
        <time>2016-08-20T08:38:04.000Z</time>
      </trkpt>
      <trkpt lat="47.59316" lon="7.37179">
        <ele>408.74</ele>
        <time>2016-08-20T08:38:11.000Z</time>
      </trkpt>
      <trkpt lat="47.59306" lon="7.37175">
        <ele>408.97</ele>
        <time>2016-08-20T08:38:17.000Z</time>
      </trkpt>
      <trkpt lat="47.59297" lon="7.37178">
        <ele>411.1</ele>
        <time>2016-08-20T08:38:25.000Z</time>
      </trkpt>
      <trkpt lat="47.5929" lon="7.37186">
        <ele>410.61</ele>
        <time>2016-08-20T08:38:31.000Z</time>
      </trkpt>
      <trkpt lat="47.59282" lon="7.37196">
        <ele>411.83</ele>
        <time>2016-08-20T08:38:38.000Z</time>
      </trkpt>
      <trkpt lat="47.59275" lon="7.37206">
        <ele>414.17</ele>
        <time>2016-08-20T08:38:46.000Z</time>
      </trkpt>
      <trkpt lat="47.59267" lon="7.37213">
        <ele>415.14</ele>
        <time>2016-08-20T08:38:53.000Z</time>
      </trkpt>
      <trkpt lat="47.59265" lon="7.37199">
        <ele>413.79</ele>
        <time>2016-08-20T08:39:01.000Z</time>
      </trkpt>
      <trkpt lat="47.59262" lon="7.37185">
        <ele>416.39</ele>
        <time>2016-08-20T08:39:09.000Z</time>
      </trkpt>
    </trkseg>
  </trk>
</gpx>